Observation data for Persimmon Gap on 10/20/2019      Previous  Date       Current Mesonet Observations  Soil Data  Daily Summary Page  Observations in Plain Language
KPG1 200500Z 01012KT 23/01 A2989 RMK A01 T02310013  RH  024%=      5-min Rain = 0
KPG1 200501Z 01010KT 23/01 A2989 RMK A01 T02310013  RH  024%=      5-min Rain = 0
KPG1 200502Z 00013KT 23/01 A2989 RMK A01 T02300013  RH  024%=      5-min Rain = 0
KPG1 200503Z 00011KT 23/01 A2989 RMK A01 T02290013  RH  024%=      5-min Rain = 0
KPG1 200504Z 01013KT 23/01 A2989 RMK A01 T02290013  RH  024%=      5-min Rain = 0
KPG1 200505Z 01012KT 23/01 A2989 RMK A01 T02290012  RH  024%=      5-min Rain = 0
KPG1 200506Z 01013KT 23/01 A2989 RMK A01 T02290013  RH  024%=      5-min Rain = 0
KPG1 200507Z 01012KT 23/01 A2989 RMK A01 T02290013  RH  024%=      5-min Rain = 0
KPG1 200508Z 01012KT 23/01 A2989 RMK A01 T02290013  RH  024%=      5-min Rain = 0
KPG1 200509Z 01012KT 23/01 A2989 RMK A01 T02290013  RH  024%=      5-min Rain = 0
KPG1 200510Z 01014KT 23/01 A2989 RMK A01 T02280013  RH  024%=      5-min Rain = 0
KPG1 200511Z 00013KT 23/01 A2989 RMK A01 T02280013  RH  024%=      5-min Rain = 0
KPG1 200512Z 00014KT 23/01 A2989 RMK A01 T02280013  RH  024%=      5-min Rain = 0
KPG1 200513Z 00014KT 23/01 A2989 RMK A01 T02280013  RH  024%=      5-min Rain = 0
KPG1 200514Z 00013KT 23/01 A2989 RMK A01 T02280013  RH  024%=      5-min Rain = 0
KPG1 200515Z 01013KT 23/01 A2989 RMK A01 T02280013  RH  024%=      5-min Rain = 0
KPG1 200516Z 01012KT 23/01 A2989 RMK A01 T02280013  RH  024%=      5-min Rain = 0
KPG1 200517Z 00014KT 23/01 A2989 RMK A01 T02280013  RH  024%=      5-min Rain = 0
KPG1 200518Z 00013KT 23/01 A2989 RMK A01 T02280013  RH  024%=      5-min Rain = 0
KPG1 200519Z 00013KT 23/01 A2989 RMK A01 T02290013  RH  024%=      5-min Rain = 0
KPG1 200520Z 00013KT 23/01 A2989 RMK A01 T02290013  RH  024%=      5-min Rain = 0
KPG1 200521Z 00012KT 23/01 A2989 RMK A01 T02290013  RH  024%=      5-min Rain = 0
KPG1 200522Z 00012KT 23/01 A2989 RMK A01 T02280012  RH  024%=      5-min Rain = 0
KPG1 200523Z 00011KT 23/01 A2989 RMK A01 T02280013  RH  024%=      5-min Rain = 0
KPG1 200524Z 00011KT 23/01 A2989 RMK A01 T02280013  RH  024%=      5-min Rain = 0
KPG1 200525Z 00011KT 23/01 A2989 RMK A01 T02280012  RH  024%=      5-min Rain = 0
KPG1 200526Z 00012KT 23/01 A2989 RMK A01 T02270012  RH  024%=      5-min Rain = 0
KPG1 200527Z 00013KT 23/01 A2989 RMK A01 T02270012  RH  024%=      5-min Rain = 0
KPG1 200528Z 01012KT 23/01 A2989 RMK A01 T02270012  RH  024%=      5-min Rain = 0
KPG1 200529Z 01011KT 23/01 A2989 RMK A01 T02270012  RH  024%=      5-min Rain = 0
KPG1 200530Z 01010KT 23/01 A2989 RMK A01 T02270012  RH  024%=      5-min Rain = 0
KPG1 200531Z 00011KT 23/01 A2989 RMK A01 T02270012  RH  024%=      5-min Rain = 0
KPG1 200532Z 01010KT 23/01 A2989 RMK A01 T02270012  RH  024%=      5-min Rain = 0
KPG1 200533Z 01010KT 23/01 A2989 RMK A01 T02270012  RH  024%=      5-min Rain = 0
KPG1 200534Z 01010KT 23/01 A2989 RMK A01 T02260012  RH  024%=      5-min Rain = 0
KPG1 200535Z 00010KT 23/01 A2989 RMK A01 T02260012  RH  024%=      5-min Rain = 0
KPG1 200536Z 01010KT 23/01 A2989 RMK A01 T02260012  RH  024%=      5-min Rain = 0
KPG1 200537Z 00009KT 23/01 A2989 RMK A01 T02260012  RH  024%=      5-min Rain = 0
KPG1 200538Z 01009KT 23/01 A2989 RMK A01 T02260012  RH  024%=      5-min Rain = 0
KPG1 200539Z 01010KT 23/01 A2989 RMK A01 T02250011  RH  024%=      5-min Rain = 0
KPG1 200540Z 01008KT 23/01 A2989 RMK A01 T02250011  RH  024%=      5-min Rain = 0
KPG1 200541Z 01009KT 23/01 A2989 RMK A01 T02250011  RH  024%=      5-min Rain = 0
KPG1 200542Z 02010KT 23/01 A2989 RMK A01 T02250011  RH  024%=      5-min Rain = 0
KPG1 200543Z 02010KT 23/01 A2989 RMK A01 T02250011  RH  024%=      5-min Rain = 0
KPG1 200544Z 02010KT 23/01 A2989 RMK A01 T02260011  RH  024%=      5-min Rain = 0
KPG1 200545Z 01011KT 23/01 A2989 RMK A01 T02260011  RH  024%=      5-min Rain = 0
KPG1 200546Z 01010KT 23/01 A2989 RMK A01 T02270011  RH  024%=      5-min Rain = 0
KPG1 200547Z 01011KT 23/01 A2989 RMK A01 T02280011  RH  024%=      5-min Rain = 0
KPG1 200548Z 01011KT 23/01 A2989 RMK A01 T02280011  RH  024%=      5-min Rain = 0
KPG1 200549Z 01010KT 23/01 A2988 RMK A01 T02280011  RH  024%=      5-min Rain = 0
KPG1 200550Z 01009KT 23/01 A2988 RMK A01 T02280011  RH  024%=      5-min Rain = 0
KPG1 200551Z 01011KT 23/01 A2988 RMK A01 T02270010  RH  024%=      5-min Rain = 0
KPG1 200552Z 01009KT 23/01 A2988 RMK A01 T02270011  RH  024%=      5-min Rain = 0
KPG1 200553Z 01010KT 23/01 A2988 RMK A01 T02270010  RH  024%=      5-min Rain = 0
KPG1 200554Z 02009KT 23/01 A2988 RMK A01 T02270011  RH  024%=      5-min Rain = 0
KPG1 200555Z 01011KT 23/01 A2988 RMK A01 T02270011  RH  024%=      5-min Rain = 0
KPG1 200556Z 01009KT 23/01 A2988 RMK A01 T02270010  RH  024%=      5-min Rain = 0
KPG1 200557Z 03008KT 23/01 A2988 RMK A01 T02270010  RH  024%=      5-min Rain = 0
KPG1 200558Z 02009KT 23/01 A2988 RMK A01 T02250010  RH  024%=      5-min Rain = 0
KPG1 200559Z 02008KT 22/01 A2988 RMK A01 T02230010  RH  024%=      5-min Rain = 0
KPG1 200600Z 02009KT 22/01 A2988 RMK A01 T02220010  RH  024%=      5-min Rain = 0
KPG1 200601Z 02009KT 22/01 A2988 RMK A01 T02220010  RH  025%=      5-min Rain = 0
KPG1 200602Z 02009KT 22/01 A2988 RMK A01 T02230010  RH  024%=      5-min Rain = 0
KPG1 200603Z 01010KT 22/01 A2988 RMK A01 T02230010  RH  024%=      5-min Rain = 0
KPG1 200604Z 01010KT 22/01 A2988 RMK A01 T02240010  RH  024%=      5-min Rain = 0
KPG1 200605Z 01010KT 23/01 A2988 RMK A01 T02250010  RH  024%=      5-min Rain = 0
KPG1 200606Z 02009KT 23/01 A2988 RMK A01 T02260010  RH  024%=      5-min Rain = 0
KPG1 200607Z 01010KT 23/01 A2988 RMK A01 T02260010  RH  024%=      5-min Rain = 0
KPG1 200608Z 01010KT 23/01 A2988 RMK A01 T02260010  RH  024%=      5-min Rain = 0
KPG1 200609Z 03010KT 23/01 A2988 RMK A01 T02270010  RH  024%=      5-min Rain = 0
KPG1 200610Z 01009KT 23/01 A2988 RMK A01 T02270010  RH  024%=      5-min Rain = 0
KPG1 200611Z 01011KT 23/01 A2988 RMK A01 T02260009  RH  024%=      5-min Rain = 0
KPG1 200612Z 02010KT 23/01 A2988 RMK A01 T02260009  RH  024%=      5-min Rain = 0
KPG1 200613Z 01011KT 23/01 A2988 RMK A01 T02260009  RH  024%=      5-min Rain = 0
KPG1 200614Z 01011KT 23/01 A2988 RMK A01 T02270009  RH  024%=      5-min Rain = 0
KPG1 200615Z 02009KT 23/01 A2988 RMK A01 T02270010  RH  024%=      5-min Rain = 0
KPG1 200616Z 01010KT 23/01 A2988 RMK A01 T02270009  RH  024%=      5-min Rain = 0
KPG1 200617Z 01010KT 23/01 A2988 RMK A01 T02270009  RH  024%=      5-min Rain = 0
KPG1 200618Z 01010KT 23/01 A2988 RMK A01 T02260009  RH  024%=      5-min Rain = 0
KPG1 200619Z 02009KT 23/01 A2988 RMK A01 T02260009  RH  024%=      5-min Rain = 0
KPG1 200620Z 01011KT 23/01 A2988 RMK A01 T02260009  RH  024%=      5-min Rain = 0
KPG1 200621Z 01011KT 23/01 A2988 RMK A01 T02260009  RH  024%=      5-min Rain = 0
KPG1 200622Z 01010KT 23/01 A2988 RMK A01 T02260010  RH  024%=      5-min Rain = 0
KPG1 200623Z 01011KT 23/01 A2988 RMK A01 T02270009  RH  024%=      5-min Rain = 0
KPG1 200624Z 02011KT 23/01 A2988 RMK A01 T02260009  RH  024%=      5-min Rain = 0
KPG1 200625Z 02010KT 23/01 A2988 RMK A01 T02270009  RH  024%=      5-min Rain = 0
KPG1 200626Z 01010KT 23/01 A2988 RMK A01 T02270009  RH  024%=      5-min Rain = 0
KPG1 200627Z 01010KT 23/01 A2988 RMK A01 T02270009  RH  024%=      5-min Rain = 0
KPG1 200628Z 02010KT 23/01 A2988 RMK A01 T02260009  RH  024%=      5-min Rain = 0
KPG1 200629Z 02011KT 23/01 A2988 RMK A01 T02270009  RH  024%=      5-min Rain = 0
KPG1 200630Z 01011KT 23/01 A2988 RMK A01 T02260009  RH  024%=      5-min Rain = 0
KPG1 200631Z 02011KT 23/01 A2988 RMK A01 T02270009  RH  024%=      5-min Rain = 0
KPG1 200632Z 01010KT 23/01 A2988 RMK A01 T02270009  RH  024%=      5-min Rain = 0
KPG1 200633Z 01010KT 23/01 A2988 RMK A01 T02260009  RH  024%=      5-min Rain = 0
KPG1 200634Z 02010KT 23/01 A2988 RMK A01 T02260009  RH  024%=      5-min Rain = 0
KPG1 200635Z 01010KT 23/01 A2988 RMK A01 T02260009  RH  024%=      5-min Rain = 0
KPG1 200636Z 01009KT 23/01 A2988 RMK A01 T02260009  RH  024%=      5-min Rain = 0
KPG1 200637Z 02009KT 23/01 A2988 RMK A01 T02250009  RH  024%=      5-min Rain = 0
KPG1 200638Z 02010KT 23/01 A2988 RMK A01 T02250009  RH  024%=      5-min Rain = 0
KPG1 200639Z 02009KT 23/01 A2988 RMK A01 T02250009  RH  024%=      5-min Rain = 0
KPG1 200640Z 02010KT 23/01 A2987 RMK A01 T02250009  RH  024%=      5-min Rain = 0
KPG1 200641Z 02010KT 23/01 A2987 RMK A01 T02250009  RH  024%=      5-min Rain = 0
KPG1 200642Z 02010KT 22/01 A2987 RMK A01 T02240008  RH  024%=      5-min Rain = 0
KPG1 200643Z 02008KT 22/01 A2987 RMK A01 T02240009  RH  024%=      5-min Rain = 0
KPG1 200644Z 01010KT 22/01 A2987 RMK A01 T02240009  RH  024%=      5-min Rain = 0
KPG1 200645Z 01010KT 22/01 A2987 RMK A01 T02240008  RH  024%=      5-min Rain = 0
KPG1 200646Z 01009KT 23/01 A2987 RMK A01 T02250009  RH  024%=      5-min Rain = 0
KPG1 200647Z 02010KT 23/01 A2987 RMK A01 T02260009  RH  024%=      5-min Rain = 0
KPG1 200648Z 01011KT 23/01 A2987 RMK A01 T02260009  RH  024%=      5-min Rain = 0
KPG1 200649Z 01011KT 23/01 A2987 RMK A01 T02260009  RH  024%=      5-min Rain = 0
KPG1 200650Z 01010KT 23/01 A2987 RMK A01 T02260008  RH  024%=      5-min Rain = 0
KPG1 200651Z 01010KT 23/01 A2987 RMK A01 T02270009  RH  024%=      5-min Rain = 0
KPG1 200652Z 01011KT 23/01 A2987 RMK A01 T02260008  RH  024%=      5-min Rain = 0
KPG1 200653Z 01010KT 23/01 A2987 RMK A01 T02260008  RH  024%=      5-min Rain = 0
KPG1 200654Z 02009KT 23/01 A2987 RMK A01 T02260008  RH  024%=      5-min Rain = 0
KPG1 200655Z 02010KT 23/01 A2987 RMK A01 T02250008  RH  024%=      5-min Rain = 0
KPG1 200656Z 02010KT 23/01 A2987 RMK A01 T02250008  RH  024%=      5-min Rain = 0
KPG1 200657Z 02009KT 23/01 A2987 RMK A01 T02250008  RH  024%=      5-min Rain = 0
KPG1 200658Z 02007KT 23/01 A2987 RMK A01 T02250008  RH  024%=      5-min Rain = 0
KPG1 200659Z 01009KT 22/01 A2987 RMK A01 T02230007  RH  024%=      5-min Rain = 0
KPG1 200700Z 01010KT 22/01 A2987 RMK A01 T02220007  RH  024%=      5-min Rain = 0
KPG1 200701Z 02008KT 22/01 A2987 RMK A01 T02230008  RH  024%=      5-min Rain = 0
KPG1 200702Z 02007KT 22/01 A2987 RMK A01 T02230008  RH  024%=      5-min Rain = 0
KPG1 200703Z 02009KT 22/01 A2987 RMK A01 T02220007  RH  024%=      5-min Rain = 0
KPG1 200704Z 01008KT 22/01 A2987 RMK A01 T02220008  RH  024%=      5-min Rain = 0
KPG1 200705Z 01010KT 22/01 A2987 RMK A01 T02230008  RH  024%=      5-min Rain = 0
KPG1 200706Z 02011KT 22/01 A2987 RMK A01 T02240008  RH  024%=      5-min Rain = 0
KPG1 200707Z 01010KT 22/01 A2987 RMK A01 T02240008  RH  024%=      5-min Rain = 0
KPG1 200708Z 01010KT 23/01 A2987 RMK A01 T02250008  RH  024%=      5-min Rain = 0
KPG1 200709Z 02009KT 23/01 A2987 RMK A01 T02250008  RH  024%=      5-min Rain = 0
KPG1 200710Z 01009KT 22/01 A2987 RMK A01 T02240008  RH  024%=      5-min Rain = 0
KPG1 200711Z 02009KT 22/01 A2987 RMK A01 T02240008  RH  024%=      5-min Rain = 0
KPG1 200712Z 01009KT 22/01 A2987 RMK A01 T02240008  RH  024%=      5-min Rain = 0
KPG1 200713Z 02009KT 22/01 A2987 RMK A01 T02240008  RH  024%=      5-min Rain = 0
KPG1 200714Z 02009KT 22/01 A2987 RMK A01 T02230008  RH  024%=      5-min Rain = 0
KPG1 200715Z 02010KT 22/01 A2987 RMK A01 T02230008  RH  024%=      5-min Rain = 0
KPG1 200716Z 02009KT 22/01 A2987 RMK A01 T02230008  RH  024%=      5-min Rain = 0
KPG1 200717Z 03009KT 22/01 A2987 RMK A01 T02230007  RH  024%=      5-min Rain = 0
KPG1 200718Z 02007KT 22/01 A2987 RMK A01 T02220007  RH  024%=      5-min Rain = 0
KPG1 200719Z 03007KT 22/01 A2987 RMK A01 T02190006  RH  024%=      5-min Rain = 0
KPG1 200720Z 03007KT 21/01 A2987 RMK A01 T02130006  RH  025%=      5-min Rain = 0
KPG1 200721Z 02007KT 21/01 A2987 RMK A01 T02110007  RH  026%=      5-min Rain = 0
KPG1 200722Z 03007KT 21/01 A2987 RMK A01 T02110007  RH  026%=      5-min Rain = 0
KPG1 200723Z 03007KT 21/01 A2987 RMK A01 T02100007  RH  026%=      5-min Rain = 0
KPG1 200724Z 02008KT 21/01 A2986 RMK A01 T02090007  RH  026%=      5-min Rain = 0
KPG1 200725Z 02009KT 21/01 A2986 RMK A01 T02100008  RH  026%=      5-min Rain = 0
KPG1 200726Z 02008KT 21/01 A2986 RMK A01 T02140008  RH  026%=      5-min Rain = 0
KPG1 200727Z 02008KT 22/01 A2986 RMK A01 T02150008  RH  025%=      5-min Rain = 0
KPG1 200728Z 03007KT 21/01 A2986 RMK A01 T02120007  RH  026%=      5-min Rain = 0
KPG1 200729Z 03007KT 21/01 A2986 RMK A01 T02090007  RH  026%=      5-min Rain = 0
KPG1 200730Z 04008KT 21/01 A2986 RMK A01 T02080007  RH  026%=      5-min Rain = 0
KPG1 200731Z 03007KT 21/01 A2986 RMK A01 T02070008  RH  027%=      5-min Rain = 0
KPG1 200732Z 03008KT 21/01 A2986 RMK A01 T02060008  RH  027%=      5-min Rain = 0
KPG1 200733Z 02008KT 21/01 A2986 RMK A01 T02050008  RH  027%=      5-min Rain = 0
KPG1 200734Z 03007KT 21/01 A2986 RMK A01 T02060008  RH  027%=      5-min Rain = 0
KPG1 200735Z 04008KT 21/01 A2986 RMK A01 T02060008  RH  027%=      5-min Rain = 0
KPG1 200736Z 03008KT 21/01 A2986 RMK A01 T02060008  RH  027%=      5-min Rain = 0
KPG1 200737Z 02008KT 21/01 A2986 RMK A01 T02060008  RH  027%=      5-min Rain = 0
KPG1 200738Z 02008KT 21/01 A2986 RMK A01 T02070008  RH  027%=      5-min Rain = 0
KPG1 200739Z 03008KT 21/01 A2986 RMK A01 T02090008  RH  026%=      5-min Rain = 0
KPG1 200740Z 01008KT 21/01 A2986 RMK A01 T02080007  RH  026%=      5-min Rain = 0
KPG1 200741Z 02009KT 21/01 A2986 RMK A01 T02070007  RH  026%=      5-min Rain = 0
KPG1 200742Z 02008KT 21/01 A2986 RMK A01 T02090008  RH  026%=      5-min Rain = 0
KPG1 200743Z 02008KT 21/01 A2986 RMK A01 T02100008  RH  026%=      5-min Rain = 0
KPG1 200744Z 02008KT 21/01 A2986 RMK A01 T02110008  RH  026%=      5-min Rain = 0
KPG1 200745Z 02007KT 21/01 A2986 RMK A01 T02100007  RH  026%=      5-min Rain = 0
KPG1 200746Z 04008KT 21/01 A2986 RMK A01 T02070007  RH  026%=      5-min Rain = 0
KPG1 200747Z 04007KT 21/01 A2986 RMK A01 T02050007  RH  027%=      5-min Rain = 0
KPG1 200748Z 03007KT 20/01 A2986 RMK A01 T02040007  RH  027%=      5-min Rain = 0
KPG1 200749Z 03007KT 20/01 A2986 RMK A01 T02030007  RH  027%=      5-min Rain = 0
KPG1 200750Z 03007KT 20/01 A2986 RMK A01 T02020007  RH  027%=      5-min Rain = 0
KPG1 200751Z 03007KT 20/01 A2986 RMK A01 T02020007  RH  027%=      5-min Rain = 0
KPG1 200752Z 02008KT 20/01 A2986 RMK A01 T02020008  RH  027%=      5-min Rain = 0
KPG1 200753Z 01008KT 20/01 A2986 RMK A01 T02020007  RH  027%=      5-min Rain = 0
KPG1 200754Z 02008KT 20/01 A2986 RMK A01 T02020007  RH  027%=      5-min Rain = 0
KPG1 200755Z 02007KT 20/01 A2986 RMK A01 T02030007  RH  027%=      5-min Rain = 0
KPG1 200756Z 03006KT 20/01 A2986 RMK A01 T02040008  RH  027%=      5-min Rain = 0
KPG1 200757Z 03007KT 20/01 A2986 RMK A01 T02040007  RH  027%=      5-min Rain = 0
KPG1 200758Z 03007KT 20/01 A2986 RMK A01 T02030007  RH  027%=      5-min Rain = 0
KPG1 200759Z 02007KT 20/01 A2986 RMK A01 T02020007  RH  027%=      5-min Rain = 0
KPG1 200800Z 02006KT 21/01 A2986 RMK A01 T02050008  RH  027%=      5-min Rain = 0
KPG1 200801Z 02006KT 21/01 A2986 RMK A01 T02060008  RH  027%=      5-min Rain = 0
KPG1 200802Z 02005KT 20/01 A2986 RMK A01 T02040007  RH  027%=      5-min Rain = 0
KPG1 200803Z 02005KT 20/01 A2986 RMK A01 T02040007  RH  027%=      5-min Rain = 0
KPG1 200804Z 02006KT 20/01 A2986 RMK A01 T02030007  RH  027%=      5-min Rain = 0
KPG1 200805Z 02006KT 20/01 A2986 RMK A01 T02020007  RH  027%=      5-min Rain = 0
KPG1 200806Z 02006KT 20/01 A2986 RMK A01 T02010007  RH  027%=      5-min Rain = 0
KPG1 200807Z 03006KT 20/01 A2986 RMK A01 T02000007  RH  027%=      5-min Rain = 0
KPG1 200808Z 05006KT 20/01 A2986 RMK A01 T02010007  RH  027%=      5-min Rain = 0
KPG1 200809Z 04006KT 20/01 A2986 RMK A01 T02000007  RH  028%=      5-min Rain = 0
KPG1 200810Z 04007KT 20/01 A2986 RMK A01 T01990007  RH  028%=      5-min Rain = 0
KPG1 200811Z 03006KT 20/01 A2986 RMK A01 T01990007  RH  028%=      5-min Rain = 0
KPG1 200812Z 02006KT 20/01 A2986 RMK A01 T01990007  RH  028%=      5-min Rain = 0
KPG1 200813Z 03006KT 20/01 A2986 RMK A01 T01990007  RH  028%=      5-min Rain = 0
KPG1 200814Z 02006KT 20/01 A2986 RMK A01 T01980007  RH  028%=      5-min Rain = 0
KPG1 200815Z 02006KT 20/01 A2986 RMK A01 T01980007  RH  028%=      5-min Rain = 0
KPG1 200816Z 01005KT 20/01 A2986 RMK A01 T01970007  RH  028%=      5-min Rain = 0
KPG1 200817Z 01005KT 20/01 A2986 RMK A01 T01980007  RH  028%=      5-min Rain = 0
KPG1 200818Z 02005KT 20/01 A2986 RMK A01 T01990007  RH  028%=      5-min Rain = 0
KPG1 200819Z 01005KT 20/01 A2986 RMK A01 T02020008  RH  027%=      5-min Rain = 0
KPG1 200820Z 00006KT 20/01 A2985 RMK A01 T02040008  RH  027%=      5-min Rain = 0
KPG1 200821Z 02006KT 21/01 A2985 RMK A01 T02050008  RH  027%=      5-min Rain = 0
KPG1 200822Z 03004KT 20/01 A2985 RMK A01 T02040007  RH  027%=      5-min Rain = 0
KPG1 200823Z 03004KT 20/01 A2985 RMK A01 T02000006  RH  027%=      5-min Rain = 0
KPG1 200824Z 04005KT 20/01 A2985 RMK A01 T01980006  RH  028%=      5-min Rain = 0
KPG1 200825Z 04005KT 20/01 A2985 RMK A01 T01970007  RH  028%=      5-min Rain = 0
KPG1 200826Z 02005KT 20/01 A2985 RMK A01 T01970007  RH  028%=      5-min Rain = 0
KPG1 200827Z 02004KT 20/01 A2985 RMK A01 T01960007  RH  028%=      5-min Rain = 0
KPG1 200828Z 03004KT 20/01 A2985 RMK A01 T01950007  RH  028%=      5-min Rain = 0
KPG1 200829Z 02004KT 20/01 A2985 RMK A01 T01950007  RH  028%=      5-min Rain = 0
KPG1 200830Z 02004KT 19/01 A2985 RMK A01 T01940007  RH  029%=      5-min Rain = 0
KPG1 200831Z 02004KT 19/01 A2985 RMK A01 T01930007  RH  029%=      5-min Rain = 0
KPG1 200832Z 03004KT 19/01 A2985 RMK A01 T01930007  RH  029%=      5-min Rain = 0
KPG1 200833Z 03004KT 19/01 A2985 RMK A01 T01920007  RH  029%=      5-min Rain = 0
KPG1 200834Z 02004KT 19/01 A2985 RMK A01 T01930008  RH  029%=      5-min Rain = 0
KPG1 200835Z 02003KT 19/01 A2985 RMK A01 T01940007  RH  029%=      5-min Rain = 0
KPG1 200836Z 00002KT 19/01 A2985 RMK A01 T01940007  RH  029%=      5-min Rain = 0
KPG1 200837Z 24001KT 20/01 A2986 RMK A01 T01960008  RH  028%=      5-min Rain = 0
KPG1 200838Z 23003KT 20/01 A2986 RMK A01 T01970008  RH  028%=      5-min Rain = 0
KPG1 200839Z 24001KT 20/01 A2986 RMK A01 T01980007  RH  028%=      5-min Rain = 0
KPG1 200840Z 23002KT 20/01 A2986 RMK A01 T01970007  RH  028%=      5-min Rain = 0
KPG1 200841Z 27002KT 20/01 A2986 RMK A01 T01970007  RH  028%=      5-min Rain = 0
KPG1 200842Z 26002KT 20/01 A2986 RMK A01 T01960007  RH  028%=      5-min Rain = 0
KPG1 200843Z 24002KT 20/01 A2985 RMK A01 T01950007  RH  028%=      5-min Rain = 0
KPG1 200844Z 22002KT 19/01 A2985 RMK A01 T01940007  RH  028%=      5-min Rain = 0
KPG1 200845Z 19002KT 19/01 A2985 RMK A01 T01940007  RH  028%=      5-min Rain = 0
KPG1 200846Z 18001KT 20/01 A2985 RMK A01 T01950007  RH  028%=      5-min Rain = 0
KPG1 200847Z 18002KT 20/01 A2985 RMK A01 T01950007  RH  028%=      5-min Rain = 0
KPG1 200848Z 17002KT 20/01 A2985 RMK A01 T01960007  RH  028%=      5-min Rain = 0
KPG1 200849Z 17002KT 20/01 A2985 RMK A01 T01960007  RH  028%=      5-min Rain = 0
KPG1 200850Z 19002KT 20/01 A2985 RMK A01 T01970008  RH  028%=      5-min Rain = 0
KPG1 200851Z 21002KT 20/01 A2985 RMK A01 T01960007  RH  028%=      5-min Rain = 0
KPG1 200852Z 23001KT 20/01 A2985 RMK A01 T01970007  RH  028%=      5-min Rain = 0
KPG1 200853Z 23001KT 20/01 A2985 RMK A01 T01970007  RH  028%=      5-min Rain = 0
KPG1 200854Z 22002KT 20/01 A2985 RMK A01 T01960007  RH  028%=      5-min Rain = 0
KPG1 200855Z 21002KT 19/01 A2985 RMK A01 T01940007  RH  028%=      5-min Rain = 0
KPG1 200856Z 19002KT 19/01 A2985 RMK A01 T01930007  RH  029%=      5-min Rain = 0
KPG1 200857Z 17002KT 19/01 A2985 RMK A01 T01920007  RH  029%=      5-min Rain = 0
KPG1 200858Z 16002KT 19/01 A2985 RMK A01 T01920007  RH  029%=      5-min Rain = 0
KPG1 200859Z 14002KT 19/01 A2985 RMK A01 T01930007  RH  029%=      5-min Rain = 0
KPG1 200900Z 14001KT 19/01 A2985 RMK A01 T01920007  RH  029%=      5-min Rain = 0
KPG1 200901Z 14001KT 19/01 A2985 RMK A01 T01910007  RH  029%=      5-min Rain = 0
KPG1 200902Z 14001KT 19/01 A2985 RMK A01 T01900007  RH  029%=      5-min Rain = 0
KPG1 200903Z 15001KT 19/01 A2985 RMK A01 T01890007  RH  029%=      5-min Rain = 0
KPG1 200904Z 15001KT 19/01 A2985 RMK A01 T01890007  RH  029%=      5-min Rain = 0
KPG1 200905Z 14001KT 19/01 A2985 RMK A01 T01890007  RH  029%=      5-min Rain = 0
KPG1 200906Z 11001KT 19/01 A2985 RMK A01 T01890007  RH  029%=      5-min Rain = 0
KPG1 200907Z 08001KT 19/01 A2985 RMK A01 T01890007  RH  029%=      5-min Rain = 0
KPG1 200908Z 07001KT 19/01 A2985 RMK A01 T01890007  RH  029%=      5-min Rain = 0
KPG1 200909Z 06001KT 19/01 A2985 RMK A01 T01870006  RH  030%=      5-min Rain = 0
KPG1 200910Z 05001KT 18/01 A2985 RMK A01 T01830005  RH  030%=      5-min Rain = 0
KPG1 200911Z 03002KT 18/01 A2985 RMK A01 T01800005  RH  031%=      5-min Rain = 0
KPG1 200912Z 02002KT 18/01 A2985 RMK A01 T01760005  RH  031%=      5-min Rain = 0
KPG1 200913Z 01002KT 17/01 A2985 RMK A01 T01740005  RH  032%=      5-min Rain = 0
KPG1 200914Z 01002KT 17/01 A2985 RMK A01 T01730006  RH  032%=      5-min Rain = 0
KPG1 200915Z 00001KT 18/01 A2985 RMK A01 T01760007  RH  032%=      5-min Rain = 0
KPG1 200916Z 02001KT 18/01 A2985 RMK A01 T01800008  RH  031%=      5-min Rain = 0
KPG1 200917Z 02001KT 18/01 A2985 RMK A01 T01820008  RH  031%=      5-min Rain = 0
KPG1 200918Z 05001KT 18/01 A2985 RMK A01 T01780006  RH  031%=      5-min Rain = 0
KPG1 200919Z 04001KT 18/01 A2985 RMK A01 T01750006  RH  032%=      5-min Rain = 0
KPG1 200920Z 02001KT 17/01 A2985 RMK A01 T01720005  RH  032%=      5-min Rain = 0
KPG1 200921Z 01001KT 17/01 A2985 RMK A01 T01700006  RH  033%=      5-min Rain = 0
KPG1 200922Z 01001KT 17/01 A2985 RMK A01 T01680006  RH  033%=      5-min Rain = 0
KPG1 200923Z 01001KT 17/01 A2985 RMK A01 T01670007  RH  034%=      5-min Rain = 0
KPG1 200924Z 01001KT 17/01 A2985 RMK A01 T01650006  RH  034%=      5-min Rain = 0
KPG1 200925Z 01000KT 16/01 A2985 RMK A01 T01640006  RH  034%=      5-min Rain = 0
KPG1 200926Z 00000KT 16/01 A2985 RMK A01 T01640007  RH  034%=      5-min Rain = 0
KPG1 200927Z 00000KT 16/01 A2985 RMK A01 T01640007  RH  034%=      5-min Rain = 0
KPG1 200928Z 00000KT 17/01 A2985 RMK A01 T01660008  RH  034%=      5-min Rain = 0
KPG1 200929Z 00000KT 17/01 A2985 RMK A01 T01670008  RH  034%=      5-min Rain = 0
KPG1 200930Z 00000KT 17/01 A2985 RMK A01 T01650008  RH  034%=      5-min Rain = 0
KPG1 200931Z 05000KT 16/01 A2985 RMK A01 T01640008  RH  035%=      5-min Rain = 0
KPG1 200932Z 07000KT 17/01 A2985 RMK A01 T01650008  RH  035%=      5-min Rain = 0
KPG1 200933Z 13001KT 17/01 A2985 RMK A01 T01670009  RH  034%=      5-min Rain = 0
KPG1 200934Z 14001KT 17/01 A2985 RMK A01 T01690009  RH  034%=      5-min Rain = 0
KPG1 200935Z 12001KT 17/01 A2985 RMK A01 T01690009  RH  034%=      5-min Rain = 0
KPG1 200936Z 12000KT 17/01 A2985 RMK A01 T01680008  RH  034%=      5-min Rain = 0
KPG1 200937Z 00000KT 17/01 A2985 RMK A01 T01680008  RH  034%=      5-min Rain = 0
KPG1 200938Z 00000KT 17/01 A2985 RMK A01 T01690009  RH  034%=      5-min Rain = 0
KPG1 200939Z 00000KT 17/01 A2985 RMK A01 T01700009  RH  034%=      5-min Rain = 0
KPG1 200940Z 00000KT 17/01 A2985 RMK A01 T01710009  RH  033%=      5-min Rain = 0
KPG1 200941Z 00000KT 17/01 A2985 RMK A01 T01720009  RH  033%=      5-min Rain = 0
KPG1 200942Z 00000KT 17/01 A2985 RMK A01 T01720008  RH  033%=      5-min Rain = 0
KPG1 200943Z 00000KT 17/01 A2985 RMK A01 T01710008  RH  033%=      5-min Rain = 0
KPG1 200944Z 12000KT 17/01 A2985 RMK A01 T01710008  RH  033%=      5-min Rain = 0
KPG1 200945Z 12000KT 17/01 A2985 RMK A01 T01710008  RH  033%=      5-min Rain = 0
KPG1 200946Z 00000KT 17/01 A2985 RMK A01 T01700007  RH  033%=      5-min Rain = 0
KPG1 200947Z 00000KT 17/01 A2985 RMK A01 T01680007  RH  034%=      5-min Rain = 0
KPG1 200948Z 00000KT 17/01 A2985 RMK A01 T01680007  RH  034%=      5-min Rain = 0
KPG1 200949Z 00000KT 17/01 A2985 RMK A01 T01650007  RH  034%=      5-min Rain = 0
KPG1 200950Z 00000KT 16/01 A2985 RMK A01 T01620007  RH  035%=      5-min Rain = 0
KPG1 200951Z 00000KT 16/01 A2985 RMK A01 T01610007  RH  035%=      5-min Rain = 0
KPG1 200952Z 00001KT 16/01 A2985 RMK A01 T01590007  RH  035%=      5-min Rain = 0
KPG1 200953Z 00001KT 16/01 A2985 RMK A01 T01590007  RH  036%=      5-min Rain = 0
KPG1 200954Z 00001KT 16/01 A2985 RMK A01 T01600008  RH  036%=      5-min Rain = 0
KPG1 200955Z 00001KT 16/01 A2985 RMK A01 T01610008  RH  036%=      5-min Rain = 0
KPG1 200956Z 01001KT 16/01 A2985 RMK A01 T01620009  RH  035%=      5-min Rain = 0
KPG1 200957Z 02001KT 16/01 A2985 RMK A01 T01630009  RH  035%=      5-min Rain = 0
KPG1 200958Z 03001KT 16/01 A2985 RMK A01 T01630009  RH  035%=      5-min Rain = 0
KPG1 200959Z 04002KT 16/01 A2985 RMK A01 T01630009  RH  035%=      5-min Rain = 0
KPG1 201000Z 04001KT 16/01 A2985 RMK A01 T01630009  RH  035%=      5-min Rain = 0
KPG1 201001Z 05001KT 16/01 A2985 RMK A01 T01630009  RH  035%=      5-min Rain = 0
KPG1 201002Z 05001KT 16/01 A2985 RMK A01 T01640009  RH  035%=      5-min Rain = 0
KPG1 201003Z 05001KT 16/01 A2985 RMK A01 T01640009  RH  035%=      5-min Rain = 0
KPG1 201004Z 00000KT 16/01 A2985 RMK A01 T01630008  RH  035%=      5-min Rain = 0
KPG1 201005Z 00000KT 16/01 A2985 RMK A01 T01640009  RH  035%=      5-min Rain = 0
KPG1 201006Z 13001KT 17/01 A2985 RMK A01 T01650009  RH  035%=      5-min Rain = 0
KPG1 201007Z 14002KT 17/01 A2985 RMK A01 T01660009  RH  035%=      5-min Rain = 0
KPG1 201008Z 17002KT 16/01 A2985 RMK A01 T01640008  RH  035%=      5-min Rain = 0
KPG1 201009Z 16002KT 16/01 A2985 RMK A01 T01610007  RH  035%=      5-min Rain = 0
KPG1 201010Z 17003KT 16/01 A2985 RMK A01 T01570007  RH  036%=      5-min Rain = 0
KPG1 201011Z 19002KT 16/01 A2985 RMK A01 T01550007  RH  037%=      5-min Rain = 0
KPG1 201012Z 24002KT 15/01 A2985 RMK A01 T01530008  RH  037%=      5-min Rain = 0
KPG1 201013Z 25001KT 15/01 A2985 RMK A01 T01520008  RH  037%=      5-min Rain = 0
KPG1 201014Z 22000KT 15/01 A2985 RMK A01 T01520008  RH  038%=      5-min Rain = 0
KPG1 201015Z 27001KT 15/01 A2985 RMK A01 T01520007  RH  037%=      5-min Rain = 0
KPG1 201016Z 27000KT 15/01 A2985 RMK A01 T01530007  RH  037%=      5-min Rain = 0
KPG1 201017Z 00000KT 15/01 A2985 RMK A01 T01540006  RH  037%=      5-min Rain = 0
KPG1 201018Z 00000KT 16/01 A2985 RMK A01 T01550007  RH  036%=      5-min Rain = 0
KPG1 201019Z 00000KT 16/01 A2985 RMK A01 T01550007  RH  036%=      5-min Rain = 0
KPG1 201020Z 00000KT 16/01 A2985 RMK A01 T01560007  RH  036%=      5-min Rain = 0
KPG1 201021Z 00000KT 16/01 A2985 RMK A01 T01590009  RH  036%=      5-min Rain = 0
KPG1 201022Z 00000KT 16/01 A2985 RMK A01 T01610009  RH  036%=      5-min Rain = 0
KPG1 201023Z 00000KT 16/01 A2985 RMK A01 T01630009  RH  035%=      5-min Rain = 0
KPG1 201024Z 00000KT 16/01 A2985 RMK A01 T01640009  RH  035%=      5-min Rain = 0
KPG1 201025Z 00000KT 16/01 A2985 RMK A01 T01580006  RH  036%=      5-min Rain = 0
KPG1 201026Z 00000KT 15/01 A2985 RMK A01 T01530005  RH  037%=      5-min Rain = 0
KPG1 201027Z 02001KT 15/01 A2985 RMK A01 T01490005  RH  037%=      5-min Rain = 0
KPG1 201028Z 03001KT 15/01 A2985 RMK A01 T01470005  RH  038%=      5-min Rain = 0
KPG1 201029Z 03001KT 15/01 A2985 RMK A01 T01450006  RH  039%=      5-min Rain = 0
KPG1 201030Z 03001KT 15/01 A2985 RMK A01 T01450007  RH  039%=      5-min Rain = 0
KPG1 201031Z 03001KT 15/01 A2985 RMK A01 T01450007  RH  039%=      5-min Rain = 0
KPG1 201032Z 05001KT 15/01 A2985 RMK A01 T01450007  RH  039%=      5-min Rain = 0
KPG1 201033Z 08001KT 15/01 A2985 RMK A01 T01460008  RH  039%=      5-min Rain = 0
KPG1 201034Z 08001KT 15/01 A2985 RMK A01 T01460007  RH  039%=      5-min Rain = 0
KPG1 201035Z 08000KT 15/01 A2985 RMK A01 T01460007  RH  039%=      5-min Rain = 0
KPG1 201036Z 21001KT 15/01 A2985 RMK A01 T01460008  RH  039%=      5-min Rain = 0
KPG1 201037Z 22002KT 15/01 A2985 RMK A01 T01460008  RH  039%=      5-min Rain = 0
KPG1 201038Z 23001KT 15/01 A2985 RMK A01 T01460008  RH  039%=      5-min Rain = 0
KPG1 201039Z 23000KT 15/01 A2985 RMK A01 T01470008  RH  039%=      5-min Rain = 0
KPG1 201040Z 23000KT 15/01 A2985 RMK A01 T01480009  RH  039%=      5-min Rain = 0
KPG1 201041Z 24001KT 15/01 A2985 RMK A01 T01490008  RH  038%=      5-min Rain = 0
KPG1 201042Z 25002KT 15/01 A2985 RMK A01 T01500008  RH  038%=      5-min Rain = 0
KPG1 201043Z 25002KT 15/01 A2985 RMK A01 T01520008  RH  038%=      5-min Rain = 0
KPG1 201044Z 24002KT 15/01 A2985 RMK A01 T01540008  RH  037%=      5-min Rain = 0
KPG1 201045Z 23002KT 16/01 A2985 RMK A01 T01550008  RH  037%=      5-min Rain = 0
KPG1 201046Z 23002KT 16/01 A2985 RMK A01 T01550008  RH  037%=      5-min Rain = 0
KPG1 201047Z 23003KT 16/01 A2985 RMK A01 T01550008  RH  037%=      5-min Rain = 0
KPG1 201048Z 23003KT 16/01 A2985 RMK A01 T01550008  RH  037%=      5-min Rain = 0
KPG1 201049Z 23003KT 16/01 A2985 RMK A01 T01550008  RH  037%=      5-min Rain = 0
KPG1 201050Z 24003KT 15/01 A2985 RMK A01 T01540008  RH  037%=      5-min Rain = 0
KPG1 201051Z 22003KT 15/01 A2985 RMK A01 T01530008  RH  037%=      5-min Rain = 0
KPG1 201052Z 22003KT 15/01 A2985 RMK A01 T01520008  RH  037%=      5-min Rain = 0
KPG1 201053Z 22003KT 15/01 A2985 RMK A01 T01510008  RH  038%=      5-min Rain = 0
KPG1 201054Z 24002KT 15/01 A2985 RMK A01 T01500008  RH  038%=      5-min Rain = 0
KPG1 201055Z 24002KT 15/01 A2985 RMK A01 T01500008  RH  038%=      5-min Rain = 0
KPG1 201056Z 23002KT 15/01 A2985 RMK A01 T01490008  RH  038%=      5-min Rain = 0
KPG1 201057Z 21002KT 15/01 A2985 RMK A01 T01490008  RH  038%=      5-min Rain = 0
KPG1 201058Z 21001KT 15/01 A2985 RMK A01 T01490008  RH  038%=      5-min Rain = 0
KPG1 201059Z 23001KT 15/01 A2985 RMK A01 T01480008  RH  038%=      5-min Rain = 0
KPG1 201100Z 26001KT 15/01 A2985 RMK A01 T01480008  RH  038%=      5-min Rain = 0
KPG1 201101Z 26001KT 15/01 A2985 RMK A01 T01490008  RH  038%=      5-min Rain = 0
KPG1 201102Z 26001KT 15/01 A2985 RMK A01 T01490008  RH  038%=      5-min Rain = 0
KPG1 201103Z 24002KT 15/01 A2985 RMK A01 T01490008  RH  038%=      5-min Rain = 0
KPG1 201104Z 21002KT 15/01 A2985 RMK A01 T01490008  RH  038%=      5-min Rain = 0
KPG1 201105Z 20001KT 15/01 A2985 RMK A01 T01480007  RH  038%=      5-min Rain = 0
KPG1 201106Z 20001KT 15/01 A2985 RMK A01 T01460007  RH  039%=      5-min Rain = 0
KPG1 201107Z 00000KT 15/01 A2985 RMK A01 T01460007  RH  039%=      5-min Rain = 0
KPG1 201108Z 00000KT 14/01 A2986 RMK A01 T01440007  RH  039%=      5-min Rain = 0
KPG1 201109Z 20000KT 14/01 A2986 RMK A01 T01430006  RH  039%=      5-min Rain = 0
KPG1 201110Z 00000KT 14/01 A2986 RMK A01 T01420006  RH  040%=      5-min Rain = 0
KPG1 201111Z 28000KT 14/01 A2986 RMK A01 T01420007  RH  040%=      5-min Rain = 0
KPG1 201112Z 28002KT 14/01 A2986 RMK A01 T01410007  RH  040%=      5-min Rain = 0
KPG1 201113Z 29002KT 14/01 A2986 RMK A01 T01390007  RH  040%=      5-min Rain = 0
KPG1 201114Z 29001KT 14/01 A2986 RMK A01 T01380007  RH  041%=      5-min Rain = 0
KPG1 201115Z 23000KT 14/01 A2986 RMK A01 T01380007  RH  041%=      5-min Rain = 0
KPG1 201116Z 25001KT 14/01 A2986 RMK A01 T01380008  RH  041%=      5-min Rain = 0
KPG1 201117Z 29002KT 14/01 A2986 RMK A01 T01380008  RH  041%=      5-min Rain = 0
KPG1 201118Z 30002KT 14/01 A2986 RMK A01 T01390008  RH  041%=      5-min Rain = 0
KPG1 201119Z 29002KT 14/01 A2986 RMK A01 T01390008  RH  041%=      5-min Rain = 0
KPG1 201120Z 22001KT 14/01 A2986 RMK A01 T01400008  RH  041%=      5-min Rain = 0
KPG1 201121Z 21001KT 14/01 A2986 RMK A01 T01400008  RH  041%=      5-min Rain = 0
KPG1 201122Z 30001KT 14/01 A2986 RMK A01 T01400008  RH  041%=      5-min Rain = 0
KPG1 201123Z 31001KT 14/01 A2986 RMK A01 T01390008  RH  041%=      5-min Rain = 0
KPG1 201124Z 33001KT 14/01 A2986 RMK A01 T01380007  RH  041%=      5-min Rain = 0
KPG1 201125Z 33001KT 14/01 A2986 RMK A01 T01370007  RH  041%=      5-min Rain = 0
KPG1 201126Z 27000KT 14/01 A2986 RMK A01 T01370007  RH  041%=      5-min Rain = 0
KPG1 201127Z 27000KT 14/01 A2986 RMK A01 T01370008  RH  041%=      5-min Rain = 0
KPG1 201128Z 27000KT 14/01 A2986 RMK A01 T01370008  RH  041%=      5-min Rain = 0
KPG1 201129Z 29002KT 14/01 A2986 RMK A01 T01370009  RH  041%=      5-min Rain = 0
KPG1 201130Z 29002KT 14/01 A2986 RMK A01 T01380008  RH  041%=      5-min Rain = 0
KPG1 201131Z 30001KT 14/01 A2986 RMK A01 T01380008  RH  041%=      5-min Rain = 0
KPG1 201132Z 26001KT 14/01 A2986 RMK A01 T01370008  RH  041%=      5-min Rain = 0
KPG1 201133Z 26002KT 14/01 A2986 RMK A01 T01370008  RH  041%=      5-min Rain = 0
KPG1 201134Z 26002KT 14/01 A2986 RMK A01 T01390009  RH  041%=      5-min Rain = 0
KPG1 201135Z 25001KT 14/01 A2986 RMK A01 T01410010  RH  041%=      5-min Rain = 0
KPG1 201136Z 25001KT 14/01 A2986 RMK A01 T01420009  RH  040%=      5-min Rain = 0
KPG1 201137Z 25002KT 14/01 A2986 RMK A01 T01430009  RH  040%=      5-min Rain = 0
KPG1 201138Z 22001KT 14/01 A2986 RMK A01 T01440010  RH  040%=      5-min Rain = 0
KPG1 201139Z 21001KT 14/01 A2986 RMK A01 T01430008  RH  040%=      5-min Rain = 0
KPG1 201140Z 23002KT 14/01 A2986 RMK A01 T01410007  RH  040%=      5-min Rain = 0
KPG1 201141Z 22002KT 14/01 A2986 RMK A01 T01400008  RH  041%=      5-min Rain = 0
KPG1 201142Z 22003KT 14/01 A2986 RMK A01 T01400008  RH  041%=      5-min Rain = 0
KPG1 201143Z 22004KT 14/01 A2986 RMK A01 T01420009  RH  040%=      5-min Rain = 0
KPG1 201144Z 22003KT 14/01 A2986 RMK A01 T01420009  RH  040%=      5-min Rain = 0
KPG1 201145Z 24003KT 14/01 A2986 RMK A01 T01430009  RH  040%=      5-min Rain = 0
KPG1 201146Z 23004KT 14/01 A2986 RMK A01 T01420009  RH  040%=      5-min Rain = 0
KPG1 201147Z 24004KT 14/01 A2986 RMK A01 T01410009  RH  041%=      5-min Rain = 0
KPG1 201148Z 24003KT 14/01 A2986 RMK A01 T01400009  RH  041%=      5-min Rain = 0
KPG1 201149Z 24003KT 14/01 A2986 RMK A01 T01400009  RH  041%=      5-min Rain = 0
KPG1 201150Z 23002KT 14/01 A2986 RMK A01 T01420010  RH  041%=      5-min Rain = 0
KPG1 201151Z 21003KT 15/01 A2986 RMK A01 T01450011  RH  040%=      5-min Rain = 0
KPG1 201152Z 22002KT 15/01 A2986 RMK A01 T01480011  RH  039%=      5-min Rain = 0
KPG1 201153Z 22002KT 15/01 A2986 RMK A01 T01500011  RH  039%=      5-min Rain = 0
KPG1 201154Z 24002KT 15/01 A2986 RMK A01 T01500010  RH  039%=      5-min Rain = 0
KPG1 201155Z 23003KT 15/01 A2986 RMK A01 T01480009  RH  039%=      5-min Rain = 0
KPG1 201156Z 24002KT 15/01 A2986 RMK A01 T01460010  RH  039%=      5-min Rain = 0
KPG1 201157Z 26002KT 15/01 A2986 RMK A01 T01460009  RH  039%=      5-min Rain = 0
KPG1 201158Z 23002KT 15/01 A2986 RMK A01 T01450009  RH  039%=      5-min Rain = 0
KPG1 201159Z 22003KT 14/01 A2986 RMK A01 T01440009  RH  040%=      5-min Rain = 0
KPG1 201200Z 21002KT 14/01 A2986 RMK A01 T01430009  RH  040%=      5-min Rain = 0
KPG1 201201Z 20002KT 14/01 A2986 RMK A01 T01430010  RH  040%=      5-min Rain = 0
KPG1 201202Z 20002KT 14/01 A2986 RMK A01 T01430010  RH  040%=      5-min Rain = 0
KPG1 201203Z 21002KT 14/01 A2986 RMK A01 T01430010  RH  040%=      5-min Rain = 0
KPG1 201204Z 22002KT 14/01 A2986 RMK A01 T01420010  RH  040%=      5-min Rain = 0
KPG1 201205Z 23002KT 14/01 A2986 RMK A01 T01420009  RH  040%=      5-min Rain = 0
KPG1 201206Z 22001KT 14/01 A2986 RMK A01 T01410009  RH  041%=      5-min Rain = 0
KPG1 201207Z 23002KT 14/01 A2986 RMK A01 T01400010  RH  041%=      5-min Rain = 0
KPG1 201208Z 24002KT 14/01 A2986 RMK A01 T01390009  RH  041%=      5-min Rain = 0
KPG1 201209Z 24002KT 14/01 A2986 RMK A01 T01390010  RH  041%=      5-min Rain = 0
KPG1 201210Z 24002KT 14/01 A2986 RMK A01 T01390010  RH  041%=      5-min Rain = 0
KPG1 201211Z 25002KT 14/01 A2986 RMK A01 T01400010  RH  041%=      5-min Rain = 0
KPG1 201212Z 25003KT 14/01 A2986 RMK A01 T01420010  RH  041%=      5-min Rain = 0
KPG1 201213Z 23003KT 14/01 A2986 RMK A01 T01420011  RH  041%=      5-min Rain = 0
KPG1 201214Z 22003KT 14/01 A2986 RMK A01 T01430011  RH  041%=      5-min Rain = 0
KPG1 201215Z 24002KT 14/01 A2986 RMK A01 T01430011  RH  041%=      5-min Rain = 0
KPG1 201216Z 24002KT 14/01 A2986 RMK A01 T01440011  RH  040%=      5-min Rain = 0
KPG1 201217Z 22003KT 15/01 A2986 RMK A01 T01450011  RH  040%=      5-min Rain = 0
KPG1 201218Z 24003KT 15/01 A2986 RMK A01 T01450011  RH  040%=      5-min Rain = 0
KPG1 201219Z 23003KT 14/01 A2986 RMK A01 T01440011  RH  040%=      5-min Rain = 0
KPG1 201220Z 23003KT 14/01 A2986 RMK A01 T01430011  RH  041%=      5-min Rain = 0
KPG1 201221Z 23003KT 14/01 A2986 RMK A01 T01420010  RH  041%=      5-min Rain = 0
KPG1 201222Z 23002KT 14/01 A2986 RMK A01 T01410010  RH  041%=      5-min Rain = 0
KPG1 201223Z 23003KT 14/01 A2986 RMK A01 T01410010  RH  041%=      5-min Rain = 0
KPG1 201224Z 23003KT 14/01 A2986 RMK A01 T01400010  RH  041%=      5-min Rain = 0
KPG1 201225Z 24002KT 14/01 A2986 RMK A01 T01390010  RH  041%=      5-min Rain = 0
KPG1 201226Z 24002KT 14/01 A2986 RMK A01 T01380010  RH  042%=      5-min Rain = 0
KPG1 201227Z 25002KT 14/01 A2986 RMK A01 T01380011  RH  042%=      5-min Rain = 0
KPG1 201228Z 25002KT 14/01 A2986 RMK A01 T01380011  RH  042%=      5-min Rain = 0
KPG1 201229Z 25002KT 14/01 A2986 RMK A01 T01380011  RH  042%=      5-min Rain = 0
KPG1 201230Z 26002KT 14/01 A2986 RMK A01 T01380010  RH  042%=      5-min Rain = 0
KPG1 201231Z 24002KT 14/01 A2987 RMK A01 T01380011  RH  042%=      5-min Rain = 0
KPG1 201232Z 24003KT 14/01 A2987 RMK A01 T01380011  RH  042%=      5-min Rain = 0
KPG1 201233Z 24002KT 14/01 A2987 RMK A01 T01370011  RH  042%=      5-min Rain = 0
KPG1 201234Z 26002KT 14/01 A2987 RMK A01 T01370010  RH  042%=      5-min Rain = 0
KPG1 201235Z 26002KT 14/01 A2987 RMK A01 T01360010  RH  042%=      5-min Rain = 0
KPG1 201236Z 27003KT 14/01 A2987 RMK A01 T01350011  RH  043%=      5-min Rain = 0
KPG1 201237Z 28002KT 14/01 A2987 RMK A01 T01350011  RH  043%=      5-min Rain = 0
KPG1 201238Z 31001KT 13/01 A2987 RMK A01 T01330009  RH  043%=      5-min Rain = 0
KPG1 201239Z 29001KT 13/01 A2987 RMK A01 T01310009  RH  043%=      5-min Rain = 0
KPG1 201240Z 05000KT 13/01 A2987 RMK A01 T01290008  RH  044%=      5-min Rain = 0
KPG1 201241Z 04000KT 13/01 A2987 RMK A01 T01270008  RH  044%=      5-min Rain = 0
KPG1 201242Z 00000KT 13/01 A2987 RMK A01 T01250008  RH  045%=      5-min Rain = 0
KPG1 201243Z 04000KT 12/01 A2987 RMK A01 T01240008  RH  045%=      5-min Rain = 0
KPG1 201244Z 04001KT 12/01 A2987 RMK A01 T01240008  RH  045%=      5-min Rain = 0
KPG1 201245Z 04002KT 12/01 A2987 RMK A01 T01230009  RH  046%=      5-min Rain = 0
KPG1 201246Z 06003KT 12/01 A2987 RMK A01 T01230009  RH  046%=      5-min Rain = 0
KPG1 201247Z 06003KT 12/01 A2987 RMK A01 T01230009  RH  046%=      5-min Rain = 0
KPG1 201248Z 06003KT 12/01 A2987 RMK A01 T01220009  RH  046%=      5-min Rain = 0
KPG1 201249Z 03003KT 12/01 A2987 RMK A01 T01220010  RH  046%=      5-min Rain = 0
KPG1 201250Z 04004KT 12/01 A2987 RMK A01 T01230010  RH  046%=      5-min Rain = 0
KPG1 201251Z 04003KT 12/01 A2987 RMK A01 T01240011  RH  046%=      5-min Rain = 0
KPG1 201252Z 04003KT 13/01 A2987 RMK A01 T01260011  RH  045%=      5-min Rain = 0
KPG1 201253Z 05002KT 13/01 A2987 RMK A01 T01280012  RH  045%=      5-min Rain = 0
KPG1 201254Z 04002KT 13/01 A2987 RMK A01 T01290012  RH  045%=      5-min Rain = 0
KPG1 201255Z 03002KT 13/01 A2987 RMK A01 T01310013  RH  044%=      5-min Rain = 0
KPG1 201256Z 03001KT 13/01 A2986 RMK A01 T01330013  RH  044%=      5-min Rain = 0
KPG1 201257Z 02000KT 13/01 A2987 RMK A01 T01340013  RH  043%=      5-min Rain = 0
KPG1 201258Z 00000KT 13/01 A2986 RMK A01 T01340012  RH  043%=      5-min Rain = 0
KPG1 201259Z 00000KT 13/01 A2986 RMK A01 T01340012  RH  043%=      5-min Rain = 0
KPG1 201300Z 00000KT 14/01 A2987 RMK A01 T01350012  RH  043%=      5-min Rain = 0
KPG1 201301Z 00000KT 14/01 A2987 RMK A01 T01360012  RH  043%=      5-min Rain = 0
KPG1 201302Z 00000KT 14/01 A2987 RMK A01 T01360012  RH  043%=      5-min Rain = 0
KPG1 201303Z 24001KT 14/01 A2987 RMK A01 T01360012  RH  043%=      5-min Rain = 0
KPG1 201304Z 24001KT 14/01 A2986 RMK A01 T01350011  RH  043%=      5-min Rain = 0
KPG1 201305Z 24002KT 13/01 A2986 RMK A01 T01340011  RH  043%=      5-min Rain = 0
KPG1 201306Z 23002KT 13/01 A2986 RMK A01 T01340011  RH  043%=      5-min Rain = 0
KPG1 201307Z 23002KT 13/01 A2986 RMK A01 T01330011  RH  043%=      5-min Rain = 0
KPG1 201308Z 24002KT 13/01 A2986 RMK A01 T01310011  RH  044%=      5-min Rain = 0
KPG1 201309Z 25002KT 13/01 A2986 RMK A01 T01300010  RH  044%=      5-min Rain = 0
KPG1 201310Z 24002KT 13/01 A2987 RMK A01 T01290010  RH  044%=      5-min Rain = 0
KPG1 201311Z 24002KT 13/01 A2987 RMK A01 T01280010  RH  044%=      5-min Rain = 0
KPG1 201312Z 24002KT 13/01 A2987 RMK A01 T01280010  RH  045%=      5-min Rain = 0
KPG1 201313Z 24002KT 13/01 A2987 RMK A01 T01280010  RH  045%=      5-min Rain = 0
KPG1 201314Z 24002KT 13/01 A2986 RMK A01 T01280010  RH  044%=      5-min Rain = 0
KPG1 201315Z 23003KT 13/01 A2986 RMK A01 T01280010  RH  044%=      5-min Rain = 0
KPG1 201316Z 23002KT 13/01 A2986 RMK A01 T01280010  RH  045%=      5-min Rain = 0
KPG1 201317Z 23002KT 13/01 A2986 RMK A01 T01290011  RH  044%=      5-min Rain = 0
KPG1 201318Z 23002KT 13/01 A2986 RMK A01 T01310011  RH  044%=      5-min Rain = 0
KPG1 201319Z 23002KT 13/01 A2986 RMK A01 T01310011  RH  044%=      5-min Rain = 0
KPG1 201320Z 24002KT 13/01 A2986 RMK A01 T01300011  RH  044%=      5-min Rain = 0
KPG1 201321Z 25003KT 13/01 A2987 RMK A01 T01300011  RH  044%=      5-min Rain = 0
KPG1 201322Z 25003KT 13/01 A2987 RMK A01 T01310011  RH  044%=      5-min Rain = 0
KPG1 201323Z 24003KT 13/01 A2987 RMK A01 T01320012  RH  044%=      5-min Rain = 0
KPG1 201324Z 25003KT 13/01 A2987 RMK A01 T01340013  RH  043%=      5-min Rain = 0
KPG1 201325Z 25003KT 14/01 A2987 RMK A01 T01350013  RH  043%=      5-min Rain = 0
KPG1 201326Z 24003KT 14/01 A2987 RMK A01 T01360013  RH  043%=      5-min Rain = 0
KPG1 201327Z 25003KT 14/01 A2987 RMK A01 T01360013  RH  043%=      5-min Rain = 0
KPG1 201328Z 23003KT 14/01 A2987 RMK A01 T01370013  RH  043%=      5-min Rain = 0
KPG1 201329Z 24003KT 14/01 A2987 RMK A01 T01380014  RH  043%=      5-min Rain = 0
KPG1 201330Z 24003KT 14/01 A2987 RMK A01 T01380014  RH  043%=      5-min Rain = 0
KPG1 201331Z 23003KT 14/01 A2987 RMK A01 T01390014  RH  043%=      5-min Rain = 0
KPG1 201332Z 22003KT 14/01 A2987 RMK A01 T01390014  RH  042%=      5-min Rain = 0
KPG1 201333Z 21003KT 14/01 A2987 RMK A01 T01390014  RH  043%=      5-min Rain = 0
KPG1 201334Z 23003KT 14/01 A2987 RMK A01 T01380013  RH  043%=      5-min Rain = 0
KPG1 201335Z 23003KT 14/01 A2987 RMK A01 T01380014  RH  043%=      5-min Rain = 0
KPG1 201336Z 23004KT 14/01 A2987 RMK A01 T01380014  RH  043%=      5-min Rain = 0
KPG1 201337Z 23004KT 14/01 A2987 RMK A01 T01370014  RH  043%=      5-min Rain = 0
KPG1 201338Z 22004KT 14/01 A2987 RMK A01 T01370013  RH  043%=      5-min Rain = 0
KPG1 201339Z 23004KT 14/01 A2987 RMK A01 T01370013  RH  043%=      5-min Rain = 0
KPG1 201340Z 22004KT 14/01 A2987 RMK A01 T01370013  RH  043%=      5-min Rain = 0
KPG1 201341Z 22004KT 14/01 A2987 RMK A01 T01370013  RH  043%=      5-min Rain = 0
KPG1 201342Z 22004KT 14/01 A2987 RMK A01 T01360013  RH  043%=      5-min Rain = 0
KPG1 201343Z 23004KT 14/01 A2987 RMK A01 T01360013  RH  043%=      5-min Rain = 0
KPG1 201344Z 22003KT 14/01 A2987 RMK A01 T01360013  RH  043%=      5-min Rain = 0
KPG1 201345Z 23003KT 14/01 A2987 RMK A01 T01360013  RH  043%=      5-min Rain = 0
KPG1 201346Z 24003KT 14/01 A2987 RMK A01 T01350013  RH  043%=      5-min Rain = 0
KPG1 201347Z 25003KT 14/01 A2987 RMK A01 T01350013  RH  043%=      5-min Rain = 0
KPG1 201348Z 23002KT 14/01 A2987 RMK A01 T01360013  RH  043%=      5-min Rain = 0
KPG1 201349Z 22003KT 14/01 A2987 RMK A01 T01370014  RH  043%=      5-min Rain = 0
KPG1 201350Z 21003KT 14/01 A2987 RMK A01 T01390014  RH  043%=      5-min Rain = 0
KPG1 201351Z 21002KT 14/01 A2987 RMK A01 T01410014  RH  042%=      5-min Rain = 0
KPG1 201352Z 22002KT 14/01 A2987 RMK A01 T01410014  RH  042%=      5-min Rain = 0
KPG1 201353Z 20001KT 14/01 A2987 RMK A01 T01430014  RH  042%=      5-min Rain = 0
KPG1 201354Z 19002KT 14/02 A2987 RMK A01 T01440015  RH  041%=      5-min Rain = 0
KPG1 201355Z 19002KT 15/02 A2987 RMK A01 T01450015  RH  041%=      5-min Rain = 0
KPG1 201356Z 21002KT 15/02 A2987 RMK A01 T01460015  RH  041%=      5-min Rain = 0
KPG1 201357Z 22002KT 15/02 A2987 RMK A01 T01470015  RH  041%=      5-min Rain = 0
KPG1 201358Z 21002KT 15/02 A2987 RMK A01 T01480015  RH  041%=      5-min Rain = 0
KPG1 201359Z 22002KT 15/02 A2987 RMK A01 T01480015  RH  040%=      5-min Rain = 0
KPG1 201400Z 21002KT 15/02 A2987 RMK A01 T01480015  RH  040%=      5-min Rain = 0
KPG1 201401Z 21002KT 15/02 A2987 RMK A01 T01480015  RH  041%=      5-min Rain = 0
KPG1 201402Z 21002KT 15/02 A2987 RMK A01 T01480015  RH  040%=      5-min Rain = 0
KPG1 201403Z 20002KT 15/02 A2987 RMK A01 T01490015  RH  040%=      5-min Rain = 0
KPG1 201404Z 22003KT 15/02 A2987 RMK A01 T01500016  RH  040%=      5-min Rain = 0
KPG1 201405Z 21002KT 15/02 A2987 RMK A01 T01500016  RH  040%=      5-min Rain = 0
KPG1 201406Z 21003KT 15/02 A2987 RMK A01 T01510017  RH  040%=      5-min Rain = 0
KPG1 201407Z 20002KT 15/02 A2987 RMK A01 T01510016  RH  040%=      5-min Rain = 0
KPG1 201408Z 20002KT 15/02 A2987 RMK A01 T01520016  RH  040%=      5-min Rain = 0
KPG1 201409Z 20002KT 15/02 A2987 RMK A01 T01520016  RH  040%=      5-min Rain = 0
KPG1 201410Z 20003KT 15/02 A2987 RMK A01 T01530016  RH  040%=      5-min Rain = 0
KPG1 201411Z 21003KT 16/02 A2987 RMK A01 T01550017  RH  039%=      5-min Rain = 0
KPG1 201412Z 20003KT 16/02 A2987 RMK A01 T01560017  RH  039%=      5-min Rain = 0
KPG1 201413Z 19003KT 16/02 A2987 RMK A01 T01560016  RH  039%=      5-min Rain = 0
KPG1 201414Z 19003KT 16/02 A2987 RMK A01 T01560016  RH  039%=      5-min Rain = 0
KPG1 201415Z 21003KT 16/02 A2987 RMK A01 T01560017  RH  039%=      5-min Rain = 0
KPG1 201416Z 19003KT 16/02 A2987 RMK A01 T01570017  RH  039%=      5-min Rain = 0
KPG1 201417Z 19003KT 16/02 A2987 RMK A01 T01570017  RH  039%=      5-min Rain = 0
KPG1 201418Z 19003KT 16/02 A2987 RMK A01 T01570016  RH  039%=      5-min Rain = 0
KPG1 201419Z 20003KT 16/02 A2987 RMK A01 T01570017  RH  039%=      5-min Rain = 0
KPG1 201420Z 19003KT 16/02 A2987 RMK A01 T01580017  RH  038%=      5-min Rain = 0
KPG1 201421Z 18003KT 16/02 A2987 RMK A01 T01580016  RH  038%=      5-min Rain = 0
KPG1 201422Z 20003KT 16/02 A2987 RMK A01 T01590017  RH  038%=      5-min Rain = 0
KPG1 201423Z 20003KT 16/02 A2987 RMK A01 T01600017  RH  038%=      5-min Rain = 0
KPG1 201424Z 19003KT 16/02 A2987 RMK A01 T01610018  RH  038%=      5-min Rain = 0
KPG1 201425Z 21003KT 16/02 A2987 RMK A01 T01640020  RH  038%=      5-min Rain = 0
KPG1 201426Z 19003KT 17/02 A2987 RMK A01 T01650019  RH  037%=      5-min Rain = 0
KPG1 201427Z 20003KT 17/02 A2987 RMK A01 T01650019  RH  037%=      5-min Rain = 0
KPG1 201428Z 21003KT 16/02 A2987 RMK A01 T01640019  RH  038%=      5-min Rain = 0
KPG1 201429Z 21003KT 16/02 A2987 RMK A01 T01640020  RH  038%=      5-min Rain = 0
KPG1 201430Z 22003KT 17/02 A2987 RMK A01 T01650020  RH  038%=      5-min Rain = 0
KPG1 201431Z 21004KT 17/02 A2988 RMK A01 T01660020  RH  038%=      5-min Rain = 0
KPG1 201432Z 22004KT 17/02 A2988 RMK A01 T01660020  RH  037%=      5-min Rain = 0
KPG1 201433Z 20004KT 17/02 A2988 RMK A01 T01660020  RH  037%=      5-min Rain = 0
KPG1 201434Z 22003KT 17/02 A2988 RMK A01 T01670020  RH  037%=      5-min Rain = 0
KPG1 201435Z 21004KT 17/02 A2988 RMK A01 T01670020  RH  037%=      5-min Rain = 0
KPG1 201436Z 21004KT 17/02 A2988 RMK A01 T01680021  RH  037%=      5-min Rain = 0
KPG1 201437Z 21004KT 17/02 A2988 RMK A01 T01680021  RH  037%=      5-min Rain = 0
KPG1 201438Z 21004KT 17/02 A2988 RMK A01 T01680021  RH  037%=      5-min Rain = 0
KPG1 201439Z 21003KT 17/02 A2988 RMK A01 T01680021  RH  037%=      5-min Rain = 0
KPG1 201440Z 21003KT 17/02 A2988 RMK A01 T01700021  RH  037%=      5-min Rain = 0
KPG1 201441Z 21003KT 17/02 A2988 RMK A01 T01710021  RH  037%=      5-min Rain = 0
KPG1 201442Z 21003KT 17/02 A2988 RMK A01 T01720022  RH  036%=      5-min Rain = 0
KPG1 201443Z 21002KT 17/02 A2988 RMK A01 T01730022  RH  036%=      5-min Rain = 0
KPG1 201444Z 21003KT 17/02 A2988 RMK A01 T01730021  RH  036%=      5-min Rain = 0
KPG1 201445Z 20003KT 17/02 A2988 RMK A01 T01730022  RH  036%=      5-min Rain = 0
KPG1 201446Z 20003KT 18/02 A2988 RMK A01 T01750022  RH  036%=      5-min Rain = 0
KPG1 201447Z 22003KT 18/02 A2988 RMK A01 T01750022  RH  036%=      5-min Rain = 0
KPG1 201448Z 23003KT 18/02 A2988 RMK A01 T01750022  RH  036%=      5-min Rain = 0
KPG1 201449Z 22002KT 18/02 A2988 RMK A01 T01750022  RH  036%=      5-min Rain = 0
KPG1 201450Z 21002KT 18/02 A2988 RMK A01 T01760022  RH  036%=      5-min Rain = 0
KPG1 201451Z 22002KT 18/02 A2988 RMK A01 T01760022  RH  035%=      5-min Rain = 0
KPG1 201452Z 23002KT 18/02 A2988 RMK A01 T01760022  RH  035%=      5-min Rain = 0
KPG1 201453Z 21002KT 18/02 A2988 RMK A01 T01770022  RH  035%=      5-min Rain = 0
KPG1 201454Z 22002KT 18/02 A2988 RMK A01 T01790022  RH  035%=      5-min Rain = 0
KPG1 201455Z 20002KT 18/02 A2989 RMK A01 T01800022  RH  035%=      5-min Rain = 0
KPG1 201456Z 22002KT 18/02 A2989 RMK A01 T01810022  RH  035%=      5-min Rain = 0
KPG1 201457Z 22002KT 18/02 A2989 RMK A01 T01820023  RH  034%=      5-min Rain = 0
KPG1 201458Z 23002KT 18/02 A2989 RMK A01 T01840023  RH  034%=      5-min Rain = 0
KPG1 201459Z 21002KT 19/03 A2989 RMK A01 T01860025  RH  034%=      5-min Rain = 0
KPG1 201500Z 22002KT 19/02 A2989 RMK A01 T01880023  RH  033%=      5-min Rain = 0
KPG1 201501Z 19001KT 19/02 A2989 RMK A01 T01890023  RH  033%=      5-min Rain = 0
KPG1 201502Z 18001KT 19/02 A2989 RMK A01 T01890023  RH  033%=      5-min Rain = 0
KPG1 201503Z 18000KT 19/02 A2989 RMK A01 T01900022  RH  033%=      5-min Rain = 0
KPG1 201504Z 19001KT 19/02 A2989 RMK A01 T01910021  RH  032%=      5-min Rain = 0
KPG1 201505Z 16001KT 19/02 A2989 RMK A01 T01920021  RH  032%=      5-min Rain = 0
KPG1 201506Z 13001KT 19/02 A2989 RMK A01 T01930021  RH  032%=      5-min Rain = 0
KPG1 201507Z 13002KT 20/02 A2989 RMK A01 T01950021  RH  031%=      5-min Rain = 0
KPG1 201508Z 13001KT 20/02 A2989 RMK A01 T01970023  RH  031%=      5-min Rain = 0
KPG1 201509Z 11000KT 20/02 A2989 RMK A01 T02000022  RH  031%=      5-min Rain = 0
KPG1 201510Z 11000KT 20/02 A2989 RMK A01 T02020022  RH  030%=      5-min Rain = 0
KPG1 201511Z 12000KT 20/02 A2989 RMK A01 T02040021  RH  030%=      5-min Rain = 0
KPG1 201512Z 14000KT 21/02 A2989 RMK A01 T02060022  RH  030%=      5-min Rain = 0
KPG1 201513Z 04001KT 21/02 A2989 RMK A01 T02090023  RH  029%=      5-min Rain = 0
KPG1 201514Z 02001KT 21/02 A2989 RMK A01 T02110023  RH  029%=      5-min Rain = 0
KPG1 201515Z 01000KT 21/02 A2989 RMK A01 T02120021  RH  028%=      5-min Rain = 0
KPG1 201516Z 13000KT 21/02 A2989 RMK A01 T02140022  RH  028%=      5-min Rain = 0
KPG1 201517Z 13000KT 22/02 A2989 RMK A01 T02150023  RH  028%=      5-min Rain = 0
KPG1 201518Z 02000KT 22/03 A2989 RMK A01 T02180025  RH  028%=      5-min Rain = 0
KPG1 201519Z 04001KT 22/03 A2989 RMK A01 T02200025  RH  028%=      5-min Rain = 0
KPG1 201520Z 11001KT 22/03 A2989 RMK A01 T02220025  RH  027%=      5-min Rain = 0
KPG1 201521Z 11001KT 22/03 A2989 RMK A01 T02230025  RH  027%=      5-min Rain = 0
KPG1 201522Z 12002KT 23/03 A2989 RMK A01 T02250026  RH  027%=      5-min Rain = 0
KPG1 201523Z 15001KT 23/03 A2989 RMK A01 T02280027  RH  027%=      5-min Rain = 0
KPG1 201524Z 13001KT 23/03 A2989 RMK A01 T02320029  RH  026%=      5-min Rain = 0
KPG1 201525Z 15001KT 24/03 A2989 RMK A01 T02360028  RH  026%=      5-min Rain = 0
KPG1 201526Z 16002KT 24/03 A2989 RMK A01 T02390027  RH  025%=      5-min Rain = 0
KPG1 201527Z 16002KT 24/03 A2989 RMK A01 T02390027  RH  025%=      5-min Rain = 0
KPG1 201528Z 16002KT 24/03 A2989 RMK A01 T02370027  RH  025%=      5-min Rain = 0
KPG1 201529Z 18002KT 24/03 A2989 RMK A01 T02350026  RH  026%=      5-min Rain = 0
KPG1 201530Z 17001KT 23/03 A2989 RMK A01 T02330027  RH  026%=      5-min Rain = 0
KPG1 201531Z 21003KT 23/03 A2989 RMK A01 T02320028  RH  026%=      5-min Rain = 0
KPG1 201532Z 20002KT 23/03 A2989 RMK A01 T02320027  RH  026%=      5-min Rain = 0
KPG1 201533Z 19003KT 23/03 A2989 RMK A01 T02300028  RH  027%=      5-min Rain = 0
KPG1 201534Z 18003KT 23/03 A2989 RMK A01 T02300027  RH  026%=      5-min Rain = 0
KPG1 201535Z 18003KT 23/03 A2989 RMK A01 T02300027  RH  026%=      5-min Rain = 0
KPG1 201536Z 17004KT 23/03 A2989 RMK A01 T02300027  RH  026%=      5-min Rain = 0
KPG1 201537Z 17004KT 23/03 A2989 RMK A01 T02290027  RH  027%=      5-min Rain = 0
KPG1 201538Z 17005KT 23/03 A2989 RMK A01 T02290027  RH  027%=      5-min Rain = 0
KPG1 201539Z 16004KT 23/03 A2989 RMK A01 T02300026  RH  026%=      5-min Rain = 0
KPG1 201540Z 16003KT 23/03 A2989 RMK A01 T02290026  RH  026%=      5-min Rain = 0
KPG1 201541Z 18005KT 23/03 A2989 RMK A01 T02290027  RH  027%=      5-min Rain = 0
KPG1 201542Z 19004KT 23/03 A2989 RMK A01 T02300027  RH  026%=      5-min Rain = 0
KPG1 201543Z 17004KT 23/03 A2989 RMK A01 T02290026  RH  026%=      5-min Rain = 0
KPG1 201544Z 17004KT 23/03 A2989 RMK A01 T02290028  RH  027%=      5-min Rain = 0
KPG1 201545Z 18004KT 23/03 A2989 RMK A01 T02340028  RH  026%=      5-min Rain = 0
KPG1 201546Z 18003KT 24/03 A2989 RMK A01 T02360028  RH  026%=      5-min Rain = 0
KPG1 201547Z 18005KT 23/03 A2989 RMK A01 T02340029  RH  026%=      5-min Rain = 0
KPG1 201548Z 18004KT 24/03 A2989 RMK A01 T02350029  RH  026%=      5-min Rain = 0
KPG1 201549Z 20004KT 24/03 A2989 RMK A01 T02360030  RH  026%=      5-min Rain = 0
KPG1 201550Z 19005KT 24/03 A2989 RMK A01 T02360030  RH  026%=      5-min Rain = 0
KPG1 201551Z 18004KT 24/03 A2989 RMK A01 T02360032  RH  026%=      5-min Rain = 0
KPG1 201552Z 19003KT 24/03 A2989 RMK A01 T02360032  RH  026%=      5-min Rain = 0
KPG1 201553Z 18002KT 24/03 A2989 RMK A01 T02370033  RH  026%=      5-min Rain = 0
KPG1 201554Z 18003KT 24/03 A2989 RMK A01 T02390032  RH  026%=      5-min Rain = 0
KPG1 201555Z 18004KT 24/03 A2989 RMK A01 T02410033  RH  026%=      5-min Rain = 0
KPG1 201556Z 18002KT 24/03 A2989 RMK A01 T02380032  RH  026%=      5-min Rain = 0
KPG1 201557Z 14003KT 24/03 A2989 RMK A01 T02370034  RH  027%=      5-min Rain = 0
KPG1 201558Z 16003KT 24/03 A2989 RMK A01 T02400034  RH  026%=      5-min Rain = 0
KPG1 201559Z 20003KT 24/04 A2989 RMK A01 T02400035  RH  026%=      5-min Rain = 0
KPG1 201600Z 22002KT 24/04 A2989 RMK A01 T02410036  RH  026%=      5-min Rain = 0
KPG1 201601Z 20002KT 24/04 A2989 RMK A01 T02410035  RH  026%=      5-min Rain = 0
KPG1 201602Z 17003KT 24/03 A2989 RMK A01 T02410034  RH  026%=      5-min Rain = 0
KPG1 201603Z 17004KT 24/04 A2989 RMK A01 T02400035  RH  026%=      5-min Rain = 0
KPG1 201604Z 18005KT 24/03 A2989 RMK A01 T02410034  RH  026%=      5-min Rain = 0
KPG1 201605Z 18003KT 24/04 A2989 RMK A01 T02420036  RH  026%=      5-min Rain = 0
KPG1 201606Z 22004KT 24/04 A2989 RMK A01 T02430039  RH  027%=      5-min Rain = 0
KPG1 201607Z 22004KT 24/04 A2988 RMK A01 T02430043  RH  027%=      5-min Rain = 0
KPG1 201608Z 17005KT 24/04 A2988 RMK A01 T02420041  RH  027%=      5-min Rain = 0
KPG1 201609Z 16003KT 24/04 A2988 RMK A01 T02430040  RH  027%=      5-min Rain = 0
KPG1 201610Z 18004KT 24/04 A2988 RMK A01 T02430040  RH  027%=      5-min Rain = 0
KPG1 201611Z 18005KT 25/04 A2988 RMK A01 T02460041  RH  026%=      5-min Rain = 0
KPG1 201612Z 17006KT 25/04 A2988 RMK A01 T02500040  RH  026%=      5-min Rain = 0
KPG1 201613Z 17006KT 25/04 A2988 RMK A01 T02500038  RH  025%=      5-min Rain = 0
KPG1 201614Z 18004KT 25/04 A2988 RMK A01 T02460036  RH  025%=      5-min Rain = 0
KPG1 201615Z 18003KT 24/04 A2988 RMK A01 T02420036  RH  026%=      5-min Rain = 0
KPG1 201616Z 18002KT 24/04 A2988 RMK A01 T02410036  RH  026%=      5-min Rain = 0
KPG1 201617Z 18004KT 24/04 A2988 RMK A01 T02410036  RH  026%=      5-min Rain = 0
KPG1 201618Z 17006KT 24/04 A2988 RMK A01 T02430037  RH  026%=      5-min Rain = 0
KPG1 201619Z 17004KT 24/04 A2988 RMK A01 T02440037  RH  026%=      5-min Rain = 0
KPG1 201620Z 18004KT 24/04 A2988 RMK A01 T02430037  RH  026%=      5-min Rain = 0
KPG1 201621Z 20003KT 24/04 A2988 RMK A01 T02430038  RH  026%=      5-min Rain = 0
KPG1 201622Z 21003KT 24/04 A2988 RMK A01 T02430037  RH  026%=      5-min Rain = 0
KPG1 201623Z 19004KT 24/04 A2988 RMK A01 T02430038  RH  026%=      5-min Rain = 0
KPG1 201624Z 16005KT 24/04 A2988 RMK A01 T02430039  RH  027%=      5-min Rain = 0
KPG1 201625Z 16004KT 25/04 A2988 RMK A01 T02460040  RH  026%=      5-min Rain = 0
KPG1 201626Z 17003KT 25/04 A2988 RMK A01 T02490040  RH  026%=      5-min Rain = 0
KPG1 201627Z 20003KT 25/04 A2988 RMK A01 T02490040  RH  026%=      5-min Rain = 0
KPG1 201628Z 23002KT 25/04 A2988 RMK A01 T02490041  RH  026%=      5-min Rain = 0
KPG1 201629Z 16004KT 25/04 A2987 RMK A01 T02490042  RH  026%=      5-min Rain = 0
KPG1 201630Z 17005KT 25/04 A2987 RMK A01 T02520042  RH  026%=      5-min Rain = 0
KPG1 201631Z 17004KT 26/04 A2987 RMK A01 T02550044  RH  026%=      5-min Rain = 0
KPG1 201632Z 16003KT 26/04 A2987 RMK A01 T02570044  RH  025%=      5-min Rain = 0
KPG1 201633Z 16002KT 26/04 A2987 RMK A01 T02580044  RH  025%=      5-min Rain = 0
KPG1 201634Z 17003KT 26/04 A2987 RMK A01 T02570043  RH  025%=      5-min Rain = 0
KPG1 201635Z 17005KT 26/05 A2987 RMK A01 T02570045  RH  025%=      5-min Rain = 0
KPG1 201636Z 16004KT 26/05 A2987 RMK A01 T02560047  RH  026%=      5-min Rain = 0
KPG1 201637Z 17005KT 26/05 A2987 RMK A01 T02560047  RH  026%=      5-min Rain = 0
KPG1 201638Z 16005KT 26/04 A2987 RMK A01 T02570044  RH  025%=      5-min Rain = 0
KPG1 201639Z 16005KT 26/05 A2987 RMK A01 T02560046  RH  026%=      5-min Rain = 0
KPG1 201640Z 17002KT 26/05 A2987 RMK A01 T02550047  RH  026%=      5-min Rain = 0
KPG1 201641Z 20003KT 26/05 A2987 RMK A01 T02550048  RH  026%=      5-min Rain = 0
KPG1 201642Z 19005KT 25/05 A2987 RMK A01 T02540046  RH  026%=      5-min Rain = 0
KPG1 201643Z 17005KT 25/05 A2987 RMK A01 T02530049  RH  027%=      5-min Rain = 0
KPG1 201644Z 19007KT 25/05 A2987 RMK A01 T02530050  RH  027%=      5-min Rain = 0
KPG1 201645Z 20006KT 26/05 A2987 RMK A01 T02560050  RH  027%=      5-min Rain = 0
KPG1 201646Z 20005KT 26/05 A2987 RMK A01 T02570051  RH  027%=      5-min Rain = 0
KPG1 201647Z 20004KT 26/05 A2987 RMK A01 T02570051  RH  027%=      5-min Rain = 0
KPG1 201648Z 21003KT 26/05 A2987 RMK A01 T02570053  RH  027%=      5-min Rain = 0
KPG1 201649Z 21003KT 26/05 A2987 RMK A01 T02590052  RH  027%=      5-min Rain = 0
KPG1 201650Z 19005KT 26/05 A2987 RMK A01 T02600053  RH  026%=      5-min Rain = 0
KPG1 201651Z 17005KT 26/05 A2987 RMK A01 T02620053  RH  026%=      5-min Rain = 0
KPG1 201652Z 18005KT 26/06 A2987 RMK A01 T02620055  RH  027%=      5-min Rain = 0
KPG1 201653Z 19005KT 27/06 A2986 RMK A01 T02650058  RH  027%=      5-min Rain = 0
KPG1 201654Z 21004KT 27/06 A2986 RMK A01 T02670058  RH  026%=      5-min Rain = 0
KPG1 201655Z 20004KT 27/06 A2986 RMK A01 T02690059  RH  026%=      5-min Rain = 0
KPG1 201656Z 21005KT 27/06 A2986 RMK A01 T02710058  RH  026%=      5-min Rain = 0
KPG1 201657Z 20005KT 27/06 A2986 RMK A01 T02710056  RH  025%=      5-min Rain = 0
KPG1 201658Z 22006KT 27/06 A2986 RMK A01 T02680057  RH  026%=      5-min Rain = 0
KPG1 201659Z 23005KT 27/06 A2986 RMK A01 T02680058  RH  026%=      5-min Rain = 0
KPG1 201700Z 21005KT 27/06 A2986 RMK A01 T02700059  RH  026%=      5-min Rain = 0
KPG1 201701Z 20006KT 27/06 A2986 RMK A01 T02730061  RH  026%=      5-min Rain = 0
KPG1 201702Z 20006KT 27/06 A2986 RMK A01 T02740063  RH  026%=      5-min Rain = 0
KPG1 201703Z 22005KT 27/06 A2986 RMK A01 T02730063  RH  026%=      5-min Rain = 0
KPG1 201704Z 22007KT 27/06 A2986 RMK A01 T02730063  RH  026%=      5-min Rain = 0
KPG1 201705Z 21007KT 27/06 A2986 RMK A01 T02730064  RH  026%=      5-min Rain = 0
KPG1 201706Z 19007KT 27/07 A2986 RMK A01 T02740065  RH  027%=      5-min Rain = 0
KPG1 201707Z 20006KT 27/06 A2986 RMK A01 T02720063  RH  026%=      5-min Rain = 0
KPG1 201708Z 20005KT 27/06 A2986 RMK A01 T02700064  RH  027%=      5-min Rain = 0
KPG1 201709Z 18004KT 27/07 A2986 RMK A01 T02710065  RH  027%=      5-min Rain = 0
KPG1 201710Z 20006KT 28/07 A2986 RMK A01 T02750069  RH  027%=      5-min Rain = 0
KPG1 201711Z 19005KT 28/07 A2986 RMK A01 T02780068  RH  026%=      5-min Rain = 0
KPG1 201712Z 17007KT 28/07 A2986 RMK A01 T02780068  RH  027%=      5-min Rain = 0
KPG1 201713Z 19006KT 28/07 A2986 RMK A01 T02790069  RH  026%=      5-min Rain = 0
KPG1 201714Z 18009KT 28/07 A2985 RMK A01 T02810070  RH  026%=      5-min Rain = 0
KPG1 201715Z 19008KT 28/07 A2985 RMK A01 T02800071  RH  027%=      5-min Rain = 0
KPG1 201716Z 20007KT 28/07 A2985 RMK A01 T02780070  RH  027%=      5-min Rain = 0
KPG1 201717Z 19007KT 28/07 A2985 RMK A01 T02750069  RH  027%=      5-min Rain = 0
KPG1 201718Z 17006KT 27/07 A2985 RMK A01 T02730069  RH  027%=      5-min Rain = 0
KPG1 201719Z 16008KT 27/07 A2985 RMK A01 T02740069  RH  027%=      5-min Rain = 0
KPG1 201720Z 16006KT 28/07 A2985 RMK A01 T02750069  RH  027%=      5-min Rain = 0
KPG1 201721Z 18004KT 28/07 A2985 RMK A01 T02780069  RH  027%=      5-min Rain = 0
KPG1 201722Z 22005KT 28/07 A2985 RMK A01 T02810070  RH  026%=      5-min Rain = 0
KPG1 201723Z 21006KT 28/07 A2985 RMK A01 T02820069  RH  026%=      5-min Rain = 0
KPG1 201724Z 22010KT 28/07 A2985 RMK A01 T02800069  RH  026%=      5-min Rain = 0
KPG1 201725Z 23008KT 28/07 A2985 RMK A01 T02780069  RH  027%=      5-min Rain = 0
KPG1 201726Z 22008KT 28/07 A2985 RMK A01 T02770070  RH  027%=      5-min Rain = 0
KPG1 201727Z 20006KT 28/07 A2985 RMK A01 T02770069  RH  027%=      5-min Rain = 0
KPG1 201728Z 20004KT 28/07 A2985 RMK A01 T02780069  RH  027%=      5-min Rain = 0
KPG1 201729Z 20006KT 28/07 A2985 RMK A01 T02800071  RH  027%=      5-min Rain = 0
KPG1 201730Z 20006KT 28/07 A2985 RMK A01 T02820070  RH  026%=      5-min Rain = 0
KPG1 201731Z 17005KT 28/07 A2985 RMK A01 T02790070  RH  027%=      5-min Rain = 0
KPG1 201732Z 20003KT 28/07 A2985 RMK A01 T02790071  RH  027%=      5-min Rain = 0
KPG1 201733Z 18006KT 28/07 A2984 RMK A01 T02830071  RH  026%=      5-min Rain = 0
KPG1 201734Z 16006KT 29/07 A2984 RMK A01 T02860071  RH  026%=      5-min Rain = 0
KPG1 201735Z 18004KT 29/07 A2984 RMK A01 T02890071  RH  025%=      5-min Rain = 0
KPG1 201736Z 20004KT 29/07 A2984 RMK A01 T02900069  RH  025%=      5-min Rain = 0
KPG1 201737Z 18004KT 29/07 A2984 RMK A01 T02890069  RH  025%=      5-min Rain = 0
KPG1 201738Z 23003G8KT 29/07 A2984 RMK A01 T02880070  RH  025%=      5-min Rain = 0
KPG1 201739Z 25007G13KT 29/07 A2984 RMK A01 T02880071  RH  025%=      5-min Rain = 0
KPG1 201740Z 19007G14KT 29/07 A2984 RMK A01 T02890072  RH  025%=      5-min Rain = 0
KPG1 201741Z 25006KT 29/07 A2984 RMK A01 T02900072  RH  025%=      5-min Rain = 0
KPG1 201742Z 23007KT 29/07 A2984 RMK A01 T02900072  RH  025%=      5-min Rain = 0
KPG1 201743Z 23008KT 29/07 A2984 RMK A01 T02880071  RH  025%=      5-min Rain = 0
KPG1 201744Z 24006KT 29/07 A2984 RMK A01 T02850071  RH  026%=      5-min Rain = 0
KPG1 201745Z 25005KT 28/07 A2984 RMK A01 T02820070  RH  026%=      5-min Rain = 0
KPG1 201746Z 26004KT 28/07 A2984 RMK A01 T02810071  RH  027%=      5-min Rain = 0
KPG1 201747Z 26004KT 28/07 A2984 RMK A01 T02810071  RH  026%=      5-min Rain = 0
KPG1 201748Z 25003KT 28/07 A2984 RMK A01 T02810071  RH  026%=      5-min Rain = 0
KPG1 201749Z 04001KT 28/07 A2984 RMK A01 T02820070  RH  026%=      5-min Rain = 0
KPG1 201750Z 23001KT 28/07 A2984 RMK A01 T02830071  RH  026%=      5-min Rain = 0
KPG1 201751Z 25004KT 29/07 A2983 RMK A01 T02860072  RH  026%=      5-min Rain = 0
KPG1 201752Z 23006G11KT 29/07 A2983 RMK A01 T02890074  RH  026%=      5-min Rain = 0
KPG1 201753Z 23008KT 29/07 A2983 RMK A01 T02910073  RH  025%=      5-min Rain = 0
KPG1 201754Z 22007KT 29/07 A2983 RMK A01 T02900073  RH  025%=      5-min Rain = 0
KPG1 201755Z 22006KT 29/07 A2983 RMK A01 T02880072  RH  026%=      5-min Rain = 0
KPG1 201756Z 25004KT 29/07 A2983 RMK A01 T02890072  RH  025%=      5-min Rain = 0
KPG1 201757Z 22002KT 29/07 A2983 RMK A01 T02890072  RH  025%=      5-min Rain = 0
KPG1 201758Z 18002KT 29/07 A2983 RMK A01 T02890071  RH  025%=      5-min Rain = 0
KPG1 201759Z 23002KT 29/07 A2983 RMK A01 T02880071  RH  026%=      5-min Rain = 0
KPG1 201800Z 25004KT 29/07 A2983 RMK A01 T02890073  RH  026%=      5-min Rain = 0
KPG1 201801Z 29002KT 29/07 A2983 RMK A01 T02900071  RH  025%=      5-min Rain = 0
KPG1 201802Z 30005KT 29/07 A2983 RMK A01 T02910072  RH  025%=      5-min Rain = 0
KPG1 201803Z 30004KT 29/07 A2983 RMK A01 T02910071  RH  025%=      5-min Rain = 0
KPG1 201804Z 25003KT 29/07 A2983 RMK A01 T02890071  RH  025%=      5-min Rain = 0
KPG1 201805Z 23004KT 29/07 A2983 RMK A01 T02890072  RH  025%=      5-min Rain = 0
KPG1 201806Z 26005KT 29/07 A2983 RMK A01 T02900073  RH  025%=      5-min Rain = 0
KPG1 201807Z 28005KT 29/07 A2982 RMK A01 T02910073  RH  025%=      5-min Rain = 0
KPG1 201808Z 30002KT 29/07 A2982 RMK A01 T02910073  RH  025%=      5-min Rain = 0
KPG1 201809Z 24003KT 29/07 A2982 RMK A01 T02910073  RH  025%=      5-min Rain = 0
KPG1 201810Z 22005KT 29/07 A2982 RMK A01 T02920072  RH  025%=      5-min Rain = 0
KPG1 201811Z 19003KT 29/07 A2982 RMK A01 T02930072  RH  025%=      5-min Rain = 0
KPG1 201812Z 20004KT 30/07 A2982 RMK A01 T02950071  RH  024%=      5-min Rain = 0
KPG1 201813Z 22006KT 30/07 A2982 RMK A01 T02970071  RH  024%=      5-min Rain = 0
KPG1 201814Z 20005KT 30/07 A2982 RMK A01 T02990071  RH  024%=      5-min Rain = 0
KPG1 201815Z 19003KT 30/07 A2982 RMK A01 T02990071  RH  024%=      5-min Rain = 0
KPG1 201816Z 22006KT 30/07 A2982 RMK A01 T02980072  RH  024%=      5-min Rain = 0
KPG1 201817Z 21007KT 30/07 A2982 RMK A01 T03000070  RH  024%=      5-min Rain = 0
KPG1 201818Z 24004KT 30/07 A2982 RMK A01 T03000070  RH  024%=      5-min Rain = 0
KPG1 201819Z 24001KT 30/07 A2982 RMK A01 T02980070  RH  024%=      5-min Rain = 0
KPG1 201820Z 24006KT 30/07 A2982 RMK A01 T03000070  RH  024%=      5-min Rain = 0
KPG1 201821Z 24010KT 30/07 A2981 RMK A01 T03030071  RH  023%=      5-min Rain = 0
KPG1 201822Z 23010KT 31/07 A2981 RMK A01 T03060071  RH  023%=      5-min Rain = 0
KPG1 201823Z 22009KT 31/07 A2981 RMK A01 T03060069  RH  023%=      5-min Rain = 0
KPG1 201824Z 24007KT 31/07 A2981 RMK A01 T03060068  RH  023%=      5-min Rain = 0
KPG1 201825Z 25007KT 31/07 A2981 RMK A01 T03060068  RH  023%=      5-min Rain = 0
KPG1 201826Z 24008KT 31/07 A2981 RMK A01 T03060068  RH  022%=      5-min Rain = 0
KPG1 201827Z 21008KT 31/07 A2981 RMK A01 T03060066  RH  022%=      5-min Rain = 0
KPG1 201828Z 20006KT 31/07 A2981 RMK A01 T03060068  RH  022%=      5-min Rain = 0
KPG1 201829Z 19008KT 31/07 A2981 RMK A01 T03110069  RH  022%=      5-min Rain = 0
KPG1 201830Z 19010KT 31/07 A2981 RMK A01 T03130068  RH  022%=      5-min Rain = 0
KPG1 201831Z 19007KT 31/07 A2981 RMK A01 T03090067  RH  022%=      5-min Rain = 0
KPG1 201832Z 19006KT 31/07 A2981 RMK A01 T03110068  RH  022%=      5-min Rain = 0
KPG1 201833Z 18006KT 32/07 A298 RMK A01 T03160068  RH  021%=      5-min Rain = 0
KPG1 201834Z 19009KT 32/07 A298 RMK A01 T03160067  RH  021%=      5-min Rain = 0
KPG1 201835Z 19009KT 31/07 A298 RMK A01 T03130065  RH  021%=      5-min Rain = 0
KPG1 201836Z 20010KT 31/07 A298 RMK A01 T03090065  RH  022%=      5-min Rain = 0
KPG1 201837Z 23009KT 31/07 A298 RMK A01 T03090065  RH  022%=      5-min Rain = 0
KPG1 201838Z 19006KT 31/07 A298 RMK A01 T03100067  RH  022%=      5-min Rain = 0
KPG1 201839Z 19007KT 32/07 A298 RMK A01 T03150066  RH  021%=      5-min Rain = 0
KPG1 201840Z 18007KT 32/07 A298 RMK A01 T03160066  RH  021%=      5-min Rain = 0
KPG1 201841Z 18009KT 32/06 A298 RMK A01 T03180064  RH  021%=      5-min Rain = 0
KPG1 201842Z 17009KT 32/06 A298 RMK A01 T03170064  RH  021%=      5-min Rain = 0
KPG1 201843Z 18011KT 32/06 A298 RMK A01 T03150064  RH  021%=      5-min Rain = 0
KPG1 201844Z 16009KT 31/06 A2979 RMK A01 T03140064  RH  021%=      5-min Rain = 0
KPG1 201845Z 17006KT 31/06 A2979 RMK A01 T03130064  RH  021%=      5-min Rain = 0
KPG1 201846Z 17004KT 31/06 A2979 RMK A01 T03130064  RH  021%=      5-min Rain = 0
KPG1 201847Z 17005KT 32/07 A2979 RMK A01 T03160066  RH  021%=      5-min Rain = 0
KPG1 201848Z 20005KT 32/07 A2979 RMK A01 T03210067  RH  020%=      5-min Rain = 0
KPG1 201849Z 19007KT 32/07 A2979 RMK A01 T03240066  RH  020%=      5-min Rain = 0
KPG1 201850Z 18006KT 33/07 A2979 RMK A01 T03250065  RH  020%=      5-min Rain = 0
KPG1 201851Z 20008G14KT 32/07 A2979 RMK A01 T03240066  RH  020%=      5-min Rain = 0
KPG1 201852Z 22008KT 33/07 A2979 RMK A01 T03250065  RH  020%=      5-min Rain = 0
KPG1 201853Z 25006KT 33/06 A2979 RMK A01 T03250064  RH  020%=      5-min Rain = 0
KPG1 201854Z 23008KT 32/06 A2979 RMK A01 T03220063  RH  020%=      5-min Rain = 0
KPG1 201855Z 22010KT 32/06 A2979 RMK A01 T03190061  RH  020%=      5-min Rain = 0
KPG1 201856Z 20013G18KT 32/06 A2978 RMK A01 T03200062  RH  020%=      5-min Rain = 0
KPG1 201857Z 20017KT 33/06 A2978 RMK A01 T03250060  RH  019%=      5-min Rain = 0
KPG1 201858Z 19014KT 33/06 A2978 RMK A01 T03260060  RH  019%=      5-min Rain = 0
KPG1 201859Z 20016KT 33/06 A2978 RMK A01 T03290061  RH  019%=      5-min Rain = 0
KPG1 201900Z 20011G16KT 33/06 A2978 RMK A01 T03280061  RH  019%=      5-min Rain = 0
KPG1 201901Z 19014KT 33/06 A2978 RMK A01 T03260061  RH  019%=      5-min Rain = 0
KPG1 201902Z 20013G18KT 33/06 A2978 RMK A01 T03270061  RH  019%=      5-min Rain = 0
KPG1 201903Z 20013KT 33/06 A2978 RMK A01 T03270061  RH  019%=      5-min Rain = 0
KPG1 201904Z 20017KT 33/06 A2978 RMK A01 T03280061  RH  019%=      5-min Rain = 0
KPG1 201905Z 20015KT 33/06 A2978 RMK A01 T03280061  RH  019%=      5-min Rain = 0
KPG1 201906Z 19015KT 33/06 A2978 RMK A01 T03260061  RH  019%=      5-min Rain = 0
KPG1 201907Z 21013KT 33/06 A2978 RMK A01 T03280062  RH  019%=      5-min Rain = 0
KPG1 201908Z 21013KT 33/06 A2978 RMK A01 T03290061  RH  019%=      5-min Rain = 0
KPG1 201909Z 22014KT 33/06 A2978 RMK A01 T03280061  RH  019%=      5-min Rain = 0
KPG1 201910Z 23012KT 33/06 A2978 RMK A01 T03270061  RH  019%=      5-min Rain = 0
KPG1 201911Z 22010KT 33/06 A2978 RMK A01 T03250060  RH  019%=      5-min Rain = 0
KPG1 201912Z 22010KT 33/06 A2978 RMK A01 T03270062  RH  019%=      5-min Rain = 0
KPG1 201913Z 20014KT 33/06 A2978 RMK A01 T03330062  RH  019%=      5-min Rain = 0
KPG1 201914Z 20013KT 33/06 A2978 RMK A01 T03330061  RH  018%=      5-min Rain = 0
KPG1 201915Z 19014KT 33/06 A2977 RMK A01 T03310061  RH  019%=      5-min Rain = 0
KPG1 201916Z 20013KT 33/06 A2977 RMK A01 T03330061  RH  018%=      5-min Rain = 0
KPG1 201917Z 19013KT 33/06 A2977 RMK A01 T03310060  RH  018%=      5-min Rain = 0
KPG1 201918Z 19015KT 33/06 A2977 RMK A01 T03290061  RH  019%=      5-min Rain = 0
KPG1 201919Z 20015KT 33/06 A2977 RMK A01 T03310061  RH  019%=      5-min Rain = 0
KPG1 201920Z 24010KT 33/06 A2977 RMK A01 T03310062  RH  019%=      5-min Rain = 0
KPG1 201921Z 24011KT 33/06 A2977 RMK A01 T03310064  RH  019%=      5-min Rain = 0
KPG1 201922Z 24014KT 33/06 A2977 RMK A01 T03320063  RH  019%=      5-min Rain = 0
KPG1 201923Z 23012KT 33/06 A2977 RMK A01 T03310063  RH  019%=      5-min Rain = 0
KPG1 201924Z 23012KT 33/06 A2977 RMK A01 T03290062  RH  019%=      5-min Rain = 0
KPG1 201925Z 23014KT 33/06 A2977 RMK A01 T03300063  RH  019%=      5-min Rain = 0
KPG1 201926Z 22015KT 33/06 A2977 RMK A01 T03310062  RH  019%=      5-min Rain = 0
KPG1 201927Z 24015G20KT 33/06 A2977 RMK A01 T03270062  RH  019%=      5-min Rain = 0
KPG1 201928Z 26015G20KT 33/06 A2977 RMK A01 T03270062  RH  019%=      5-min Rain = 0
KPG1 201929Z 25010KT 33/06 A2977 RMK A01 T03250061  RH  019%=      5-min Rain = 0
KPG1 201930Z 24012G17KT 33/06 A2977 RMK A01 T03250061  RH  019%=      5-min Rain = 0
KPG1 201931Z 25015KT 33/06 A2977 RMK A01 T03250062  RH  019%=      5-min Rain = 0
KPG1 201932Z 26014KT 32/06 A2977 RMK A01 T03240063  RH  020%=      5-min Rain = 0
KPG1 201933Z 25012KT 32/06 A2976 RMK A01 T03230063  RH  020%=      5-min Rain = 0
KPG1 201934Z 24010G15KT 32/06 A2976 RMK A01 T03240064  RH  020%=      5-min Rain = 0
KPG1 201935Z 26015KT 33/06 A2976 RMK A01 T03260064  RH  020%=      5-min Rain = 0
KPG1 201936Z 24013KT 33/06 A2976 RMK A01 T03270064  RH  019%=      5-min Rain = 0
KPG1 201937Z 23012G17KT 33/06 A2976 RMK A01 T03260063  RH  019%=      5-min Rain = 0
KPG1 201938Z 23013KT 33/06 A2976 RMK A01 T03270064  RH  019%=      5-min Rain = 0
KPG1 201939Z 25015KT 33/07 A2976 RMK A01 T03280065  RH  019%=      5-min Rain = 0
KPG1 201940Z 26015KT 33/07 A2976 RMK A01 T03290065  RH  019%=      5-min Rain = 0
KPG1 201941Z 24012KT 33/06 A2976 RMK A01 T03260064  RH  019%=      5-min Rain = 0
KPG1 201942Z 25011KT 32/06 A2976 RMK A01 T03230063  RH  020%=      5-min Rain = 0
KPG1 201943Z 25011KT 32/06 A2976 RMK A01 T03230064  RH  020%=      5-min Rain = 0
KPG1 201944Z 23009KT 33/07 A2976 RMK A01 T03260065  RH  020%=      5-min Rain = 0
KPG1 201945Z 24013G18KT 33/07 A2976 RMK A01 T03300065  RH  019%=      5-min Rain = 0
KPG1 201946Z 25012KT 33/07 A2976 RMK A01 T03270065  RH  020%=      5-min Rain = 0
KPG1 201947Z 24010KT 32/06 A2976 RMK A01 T03240064  RH  020%=      5-min Rain = 0
KPG1 201948Z 22014KT 32/06 A2976 RMK A01 T03230064  RH  020%=      5-min Rain = 0
KPG1 201949Z 22010KT 32/06 A2975 RMK A01 T03240064  RH  020%=      5-min Rain = 0
KPG1 201950Z 25016G21KT 33/06 A2975 RMK A01 T03270064  RH  019%=      5-min Rain = 0
KPG1 201951Z 25017KT 33/06 A2975 RMK A01 T03280063  RH  019%=      5-min Rain = 0
KPG1 201952Z 23015KT 33/06 A2975 RMK A01 T03250064  RH  020%=      5-min Rain = 0
KPG1 201953Z 23013KT 33/06 A2975 RMK A01 T03290064  RH  019%=      5-min Rain = 0
KPG1 201954Z 22013KT 33/06 A2975 RMK A01 T03310064  RH  019%=      5-min Rain = 0
KPG1 201955Z 23011KT 33/06 A2975 RMK A01 T03300063  RH  019%=      5-min Rain = 0
KPG1 201956Z 23013KT 33/07 A2975 RMK A01 T03280065  RH  019%=      5-min Rain = 0
KPG1 201957Z 22011KT 33/07 A2975 RMK A01 T03290065  RH  019%=      5-min Rain = 0
KPG1 201958Z 23011KT 33/07 A2975 RMK A01 T03300065  RH  019%=      5-min Rain = 0
KPG1 201959Z 25013KT 33/07 A2975 RMK A01 T03320065  RH  019%=      5-min Rain = 0
KPG1 202000Z 25012KT 33/06 A2975 RMK A01 T03330064  RH  019%=      5-min Rain = 0
KPG1 202001Z 25014KT 33/06 A2975 RMK A01 T03310063  RH  019%=      5-min Rain = 0
KPG1 202002Z 25012KT 33/06 A2975 RMK A01 T03290063  RH  019%=      5-min Rain = 0
KPG1 202003Z 26014KT 33/06 A2975 RMK A01 T03300062  RH  019%=      5-min Rain = 0
KPG1 202004Z 26010G19KT 33/06 A2975 RMK A01 T03290062  RH  019%=      5-min Rain = 0
KPG1 202005Z 25019KT 33/06 A2975 RMK A01 T03270062  RH  019%=      5-min Rain = 0
KPG1 202006Z 25015KT 33/06 A2975 RMK A01 T03290060  RH  019%=      5-min Rain = 0
KPG1 202007Z 26015KT 33/06 A2975 RMK A01 T03280061  RH  019%=      5-min Rain = 0
KPG1 202008Z 25010KT 33/06 A2975 RMK A01 T03260062  RH  019%=      5-min Rain = 0
KPG1 202009Z 24012KT 33/06 A2975 RMK A01 T03270063  RH  019%=      5-min Rain = 0
KPG1 202010Z 24012KT 33/06 A2975 RMK A01 T03300064  RH  019%=      5-min Rain = 0
KPG1 202011Z 25017KT 33/06 A2974 RMK A01 T03330064  RH  019%=      5-min Rain = 0
KPG1 202012Z 25017KT 33/06 A2974 RMK A01 T03310063  RH  019%=      5-min Rain = 0
KPG1 202013Z 23015KT 33/06 A2974 RMK A01 T03290063  RH  019%=      5-min Rain = 0
KPG1 202014Z 24015KT 33/06 A2975 RMK A01 T03290063  RH  019%=      5-min Rain = 0
KPG1 202015Z 25014G19KT 33/06 A2974 RMK A01 T03320063  RH  019%=      5-min Rain = 0
KPG1 202016Z 25017G22KT 33/06 A2974 RMK A01 T03340062  RH  018%=      5-min Rain = 0
KPG1 202017Z 22013KT 33/06 A2974 RMK A01 T03310062  RH  019%=      5-min Rain = 0
KPG1 202018Z 22014KT 33/06 A2974 RMK A01 T03340063  RH  019%=      5-min Rain = 0
KPG1 202019Z 23014KT 34/06 A2974 RMK A01 T03360062  RH  018%=      5-min Rain = 0
KPG1 202020Z 23017G22KT 33/06 A2974 RMK A01 T03340061  RH  018%=      5-min Rain = 0
KPG1 202021Z 24016KT 33/06 A2974 RMK A01 T03320060  RH  018%=      5-min Rain = 0
KPG1 202022Z 24016KT 33/06 A2974 RMK A01 T03310059  RH  018%=      5-min Rain = 0
KPG1 202023Z 24012KT 33/06 A2974 RMK A01 T03290060  RH  019%=      5-min Rain = 0
KPG1 202024Z 24013KT 33/06 A2974 RMK A01 T03310062  RH  019%=      5-min Rain = 0
KPG1 202025Z 24012KT 33/06 A2974 RMK A01 T03330062  RH  019%=      5-min Rain = 0
KPG1 202026Z 22012KT 33/06 A2974 RMK A01 T03330062  RH  019%=      5-min Rain = 0
KPG1 202027Z 23017KT 33/06 A2974 RMK A01 T03330062  RH  019%=      5-min Rain = 0
KPG1 202028Z 23013KT 34/06 A2974 RMK A01 T03350061  RH  018%=      5-min Rain = 0
KPG1 202029Z 24013G18KT 33/06 A2974 RMK A01 T03340062  RH  018%=      5-min Rain = 0
KPG1 202030Z 23016KT 34/06 A2974 RMK A01 T03370062  RH  018%=      5-min Rain = 0
KPG1 202031Z 24012KT 34/06 A2974 RMK A01 T03360060  RH  018%=      5-min Rain = 0
KPG1 202032Z 24010KT 34/06 A2974 RMK A01 T03360060  RH  018%=      5-min Rain = 0
KPG1 202033Z 23016KT 34/06 A2974 RMK A01 T03370060  RH  018%=      5-min Rain = 0
KPG1 202034Z 23018KT 34/06 A2973 RMK A01 T03370059  RH  018%=      5-min Rain = 0
KPG1 202035Z 25018KT 34/06 A2973 RMK A01 T03360057  RH  018%=      5-min Rain = 0
KPG1 202036Z 24017KT 33/06 A2973 RMK A01 T03340057  RH  018%=      5-min Rain = 0
KPG1 202037Z 23014G19KT 33/06 A2973 RMK A01 T03340058  RH  018%=      5-min Rain = 0
KPG1 202038Z 23016KT 34/06 A2973 RMK A01 T03350059  RH  018%=      5-min Rain = 0
KPG1 202039Z 23015KT 34/06 A2973 RMK A01 T03360059  RH  018%=      5-min Rain = 0
KPG1 202040Z 21014KT 34/06 A2973 RMK A01 T03350058  RH  018%=      5-min Rain = 0
KPG1 202041Z 22013KT 33/06 A2973 RMK A01 T03330058  RH  018%=      5-min Rain = 0
KPG1 202042Z 23013KT 33/06 A2973 RMK A01 T03330059  RH  018%=      5-min Rain = 0
KPG1 202043Z 23012KT 33/06 A2973 RMK A01 T03330059  RH  018%=      5-min Rain = 0
KPG1 202044Z 21015G23KT 33/06 A2973 RMK A01 T03340058  RH  018%=      5-min Rain = 0
KPG1 202045Z 21020KT 33/06 A2973 RMK A01 T03340055  RH  018%=      5-min Rain = 0
KPG1 202046Z 21018KT 33/06 A2973 RMK A01 T03330055  RH  018%=      5-min Rain = 0
KPG1 202047Z 22014G19KT 33/06 A2973 RMK A01 T03320055  RH  018%=      5-min Rain = 0
KPG1 202048Z 21011KT 33/06 A2974 RMK A01 T03330056  RH  018%=      5-min Rain = 0
KPG1 202049Z 21012KT 34/06 A2973 RMK A01 T03360056  RH  017%=      5-min Rain = 0
KPG1 202050Z 23012KT 33/06 A2973 RMK A01 T03340055  RH  018%=      5-min Rain = 0
KPG1 202051Z 24010KT 33/06 A2973 RMK A01 T03340056  RH  018%=      5-min Rain = 0
KPG1 202052Z 24012KT 33/06 A2973 RMK A01 T03310056  RH  018%=      5-min Rain = 0
KPG1 202053Z 22011KT 33/06 A2973 RMK A01 T03310056  RH  018%=      5-min Rain = 0
KPG1 202054Z 23010KT 33/06 A2973 RMK A01 T03330056  RH  018%=      5-min Rain = 0
KPG1 202055Z 24011KT 34/06 A2973 RMK A01 T03370056  RH  017%=      5-min Rain = 0
KPG1 202056Z 24015KT 34/06 A2973 RMK A01 T03400055  RH  017%=      5-min Rain = 0
KPG1 202057Z 22014G19KT 34/05 A2973 RMK A01 T03410054  RH  017%=      5-min Rain = 0
KPG1 202058Z 22015KT 34/05 A2973 RMK A01 T03390052  RH  017%=      5-min Rain = 0
KPG1 202059Z 22014KT 34/05 A2973 RMK A01 T03390051  RH  017%=      5-min Rain = 0
KPG1 202100Z 21015KT 34/05 A2973 RMK A01 T03410052  RH  016%=      5-min Rain = 0
KPG1 202101Z 21018KT 34/05 A2973 RMK A01 T03420052  RH  016%=      5-min Rain = 0
KPG1 202102Z 22015KT 34/05 A2973 RMK A01 T03410052  RH  017%=      5-min Rain = 0
KPG1 202103Z 23016KT 34/05 A2973 RMK A01 T03400053  RH  017%=      5-min Rain = 0
KPG1 202104Z 24015KT 34/05 A2973 RMK A01 T03390054  RH  017%=      5-min Rain = 0
KPG1 202105Z 24014KT 34/05 A2973 RMK A01 T03370054  RH  017%=      5-min Rain = 0
KPG1 202106Z 22012KT 34/05 A2973 RMK A01 T03360054  RH  017%=      5-min Rain = 0
KPG1 202107Z 21013KT 34/06 A2973 RMK A01 T03400055  RH  017%=      5-min Rain = 0
KPG1 202108Z 22016G23KT 34/05 A2973 RMK A01 T03430054  RH  017%=      5-min Rain = 0
KPG1 202109Z 21015KT 34/05 A2973 RMK A01 T03430053  RH  016%=      5-min Rain = 0
KPG1 202110Z 22017KT 34/05 A2973 RMK A01 T03440051  RH  016%=      5-min Rain = 0
KPG1 202111Z 23019G25KT 34/05 A2973 RMK A01 T03430051  RH  016%=      5-min Rain = 0
KPG1 202112Z 23016KT 34/05 A2973 RMK A01 T03380052  RH  017%=      5-min Rain = 0
KPG1 202113Z 23018KT 34/05 A2973 RMK A01 T03370054  RH  017%=      5-min Rain = 0
KPG1 202114Z 23018KT 34/05 A2973 RMK A01 T03380054  RH  017%=      5-min Rain = 0
KPG1 202115Z 22017KT 34/05 A2973 RMK A01 T03370054  RH  017%=      5-min Rain = 0
KPG1 202116Z 22016KT 34/05 A2973 RMK A01 T03360054  RH  017%=      5-min Rain = 0
KPG1 202117Z 22015KT 34/05 A2973 RMK A01 T03360054  RH  017%=      5-min Rain = 0
KPG1 202118Z 21013KT 34/05 A2973 RMK A01 T03360054  RH  017%=      5-min Rain = 0
KPG1 202119Z 22011KT 34/06 A2973 RMK A01 T03390055  RH  017%=      5-min Rain = 0
KPG1 202120Z 23016KT 34/06 A2973 RMK A01 T03430055  RH  017%=      5-min Rain = 0
KPG1 202121Z 23021KT 34/05 A2973 RMK A01 T03420053  RH  017%=      5-min Rain = 0
KPG1 202122Z 23017KT 34/05 A2973 RMK A01 T03400052  RH  017%=      5-min Rain = 0
KPG1 202123Z 24015G20KT 34/05 A2973 RMK A01 T03370052  RH  017%=      5-min Rain = 0
KPG1 202124Z 24017KT 34/05 A2973 RMK A01 T03380053  RH  017%=      5-min Rain = 0
KPG1 202125Z 24018KT 34/05 A2973 RMK A01 T03380053  RH  017%=      5-min Rain = 0
KPG1 202126Z 25016KT 34/05 A2973 RMK A01 T03380052  RH  017%=      5-min Rain = 0
KPG1 202127Z 24016KT 34/05 A2973 RMK A01 T03350051  RH  017%=      5-min Rain = 0
KPG1 202128Z 24011G17KT 34/05 A2973 RMK A01 T03350051  RH  017%=      5-min Rain = 0
KPG1 202129Z 25011G17KT 34/05 A2973 RMK A01 T03370053  RH  017%=      5-min Rain = 0
KPG1 202130Z 25013KT 34/05 A2973 RMK A01 T03380052  RH  017%=      5-min Rain = 0
KPG1 202131Z 25011KT 34/05 A2973 RMK A01 T03380052  RH  017%=      5-min Rain = 0
KPG1 202132Z 26011KT 34/05 A2973 RMK A01 T03390052  RH  017%=      5-min Rain = 0
KPG1 202133Z 25012KT 34/05 A2973 RMK A01 T03400052  RH  017%=      5-min Rain = 0
KPG1 202134Z 24011KT 34/05 A2973 RMK A01 T03380052  RH  017%=      5-min Rain = 0
KPG1 202135Z 24011KT 34/05 A2973 RMK A01 T03380052  RH  017%=      5-min Rain = 0
KPG1 202136Z 23012KT 34/05 A2973 RMK A01 T03390053  RH  017%=      5-min Rain = 0
KPG1 202137Z 22014KT 34/05 A2973 RMK A01 T03420052  RH  016%=      5-min Rain = 0
KPG1 202138Z 23017KT 34/05 A2973 RMK A01 T03420050  RH  016%=      5-min Rain = 0
KPG1 202139Z 22018G23KT 34/05 A2973 RMK A01 T03400050  RH  016%=      5-min Rain = 0
KPG1 202140Z 21016G21KT 34/05 A2973 RMK A01 T03400050  RH  016%=      5-min Rain = 0
KPG1 202141Z 21017G22KT 34/05 A2973 RMK A01 T03410050  RH  016%=      5-min Rain = 0
KPG1 202142Z 22015KT 34/05 A2973 RMK A01 T03420050  RH  016%=      5-min Rain = 0
KPG1 202143Z 23013KT 34/05 A2973 RMK A01 T03430050  RH  016%=      5-min Rain = 0
KPG1 202144Z 22015KT 34/05 A2973 RMK A01 T03430050  RH  016%=      5-min Rain = 0
KPG1 202145Z 22015KT 34/05 A2973 RMK A01 T03420050  RH  016%=      5-min Rain = 0
KPG1 202146Z 23012KT 34/05 A2973 RMK A01 T03400050  RH  016%=      5-min Rain = 0
KPG1 202147Z 23013KT 34/05 A2973 RMK A01 T03400049  RH  016%=      5-min Rain = 0
KPG1 202148Z 22013KT 34/05 A2973 RMK A01 T03420048  RH  016%=      5-min Rain = 0
KPG1 202149Z 22015KT 34/05 A2973 RMK A01 T03430048  RH  016%=      5-min Rain = 0
KPG1 202150Z 22015KT 34/05 A2973 RMK A01 T03430049  RH  016%=      5-min Rain = 0
KPG1 202151Z 22017KT 34/05 A2973 RMK A01 T03420050  RH  016%=      5-min Rain = 0
KPG1 202152Z 23014KT 34/05 A2973 RMK A01 T03420050  RH  016%=      5-min Rain = 0
KPG1 202153Z 23014KT 34/05 A2973 RMK A01 T03420050  RH  016%=      5-min Rain = 0
KPG1 202154Z 25011KT 34/05 A2973 RMK A01 T03410050  RH  016%=      5-min Rain = 0
KPG1 202155Z 25010KT 34/05 A2973 RMK A01 T03410050  RH  016%=      5-min Rain = 0
KPG1 202156Z 25009KT 34/05 A2973 RMK A01 T03400050  RH  016%=      5-min Rain = 0
KPG1 202157Z 24011KT 34/05 A2973 RMK A01 T03430052  RH  016%=      5-min Rain = 0
KPG1 202158Z 22016KT 35/05 A2973 RMK A01 T03450049  RH  016%=      5-min Rain = 0
KPG1 202159Z 23014KT 35/05 A2973 RMK A01 T03450047  RH  016%=      5-min Rain = 0
KPG1 202200Z 23013KT 34/05 A2973 RMK A01 T03430046  RH  016%=      5-min Rain = 0
KPG1 202201Z 23014G19KT 34/05 A2973 RMK A01 T03410046  RH  016%=      5-min Rain = 0
KPG1 202202Z 24013KT 34/05 A2973 RMK A01 T03380045  RH  016%=      5-min Rain = 0
KPG1 202203Z 24010KT 34/05 A2973 RMK A01 T03380046  RH  016%=      5-min Rain = 0
KPG1 202204Z 22014KT 34/05 A2972 RMK A01 T03400047  RH  016%=      5-min Rain = 0
KPG1 202205Z 23012KT 34/05 A2972 RMK A01 T03430048  RH  016%=      5-min Rain = 0
KPG1 202206Z 24013KT 34/05 A2972 RMK A01 T03440049  RH  016%=      5-min Rain = 0
KPG1 202207Z 24012KT 34/05 A2972 RMK A01 T03430051  RH  016%=      5-min Rain = 0
KPG1 202208Z 23010KT 34/05 A2973 RMK A01 T03430051  RH  016%=      5-min Rain = 0
KPG1 202209Z 23014KT 34/05 A2972 RMK A01 T03430051  RH  016%=      5-min Rain = 0
KPG1 202210Z 23015KT 34/05 A2972 RMK A01 T03430052  RH  016%=      5-min Rain = 0
KPG1 202211Z 22012KT 34/05 A2973 RMK A01 T03430052  RH  016%=      5-min Rain = 0
KPG1 202212Z 23009KT 34/05 A2973 RMK A01 T03410052  RH  017%=      5-min Rain = 0
KPG1 202213Z 23008KT 34/05 A2973 RMK A01 T03420053  RH  017%=      5-min Rain = 0
KPG1 202214Z 25009KT 34/05 A2973 RMK A01 T03430053  RH  016%=      5-min Rain = 0
KPG1 202215Z 24006KT 34/05 A2973 RMK A01 T03440052  RH  016%=      5-min Rain = 0
KPG1 202216Z 22008KT 34/05 A2973 RMK A01 T03430052  RH  016%=      5-min Rain = 0
KPG1 202217Z 24009KT 34/05 A2973 RMK A01 T03430051  RH  016%=      5-min Rain = 0
KPG1 202218Z 25010KT 35/05 A2973 RMK A01 T03450052  RH  016%=      5-min Rain = 0
KPG1 202219Z 25010KT 35/05 A2973 RMK A01 T03460050  RH  016%=      5-min Rain = 0
KPG1 202220Z 24010KT 34/05 A2973 RMK A01 T03440049  RH  016%=      5-min Rain = 0
KPG1 202221Z 24010KT 34/05 A2972 RMK A01 T03420049  RH  016%=      5-min Rain = 0
KPG1 202222Z 22009KT 34/05 A2972 RMK A01 T03420050  RH  016%=      5-min Rain = 0
KPG1 202223Z 22015KT 35/05 A2972 RMK A01 T03460049  RH  016%=      5-min Rain = 0
KPG1 202224Z 22014KT 34/05 A2972 RMK A01 T03440049  RH  016%=      5-min Rain = 0
KPG1 202225Z 20013KT 34/05 A2972 RMK A01 T03420049  RH  016%=      5-min Rain = 0
KPG1 202226Z 22014KT 34/05 A2972 RMK A01 T03390049  RH  016%=      5-min Rain = 0
KPG1 202227Z 22015KT 34/05 A2972 RMK A01 T03400050  RH  016%=      5-min Rain = 0
KPG1 202228Z 23015KT 34/05 A2972 RMK A01 T03410050  RH  016%=      5-min Rain = 0
KPG1 202229Z 23015KT 34/05 A2972 RMK A01 T03410050  RH  016%=      5-min Rain = 0
KPG1 202230Z 22015KT 34/05 A2972 RMK A01 T03400048  RH  016%=      5-min Rain = 0
KPG1 202231Z 22013KT 34/05 A2972 RMK A01 T03390047  RH  016%=      5-min Rain = 0
KPG1 202232Z 23013KT 34/05 A2972 RMK A01 T03390047  RH  016%=      5-min Rain = 0
KPG1 202233Z 22012KT 34/05 A2972 RMK A01 T03390048  RH  016%=      5-min Rain = 0
KPG1 202234Z 22011KT 34/05 A2972 RMK A01 T03390049  RH  016%=      5-min Rain = 0
KPG1 202235Z 21011KT 34/05 A2972 RMK A01 T03390050  RH  016%=      5-min Rain = 0
KPG1 202236Z 24010KT 34/05 A2972 RMK A01 T03390050  RH  017%=      5-min Rain = 0
KPG1 202237Z 23011KT 34/05 A2972 RMK A01 T03400051  RH  017%=      5-min Rain = 0
KPG1 202238Z 22009KT 34/05 A2972 RMK A01 T03390051  RH  017%=      5-min Rain = 0
KPG1 202239Z 22010KT 34/05 A2972 RMK A01 T03390052  RH  017%=      5-min Rain = 0
KPG1 202240Z 21013KT 34/05 A2972 RMK A01 T03390052  RH  017%=      5-min Rain = 0
KPG1 202241Z 22010KT 34/05 A2972 RMK A01 T03400052  RH  017%=      5-min Rain = 0
KPG1 202242Z 22010KT 34/05 A2972 RMK A01 T03410052  RH  017%=      5-min Rain = 0
KPG1 202243Z 22010KT 34/05 A2972 RMK A01 T03410052  RH  017%=      5-min Rain = 0
KPG1 202244Z 21010KT 34/05 A2972 RMK A01 T03400052  RH  017%=      5-min Rain = 0
KPG1 202245Z 21011KT 34/05 A2972 RMK A01 T03400050  RH  016%=      5-min Rain = 0
KPG1 202246Z 19011KT 34/05 A2972 RMK A01 T03400048  RH  016%=      5-min Rain = 0
KPG1 202247Z 20010KT 34/05 A2972 RMK A01 T03400048  RH  016%=      5-min Rain = 0
KPG1 202248Z 23011KT 34/05 A2972 RMK A01 T03400047  RH  016%=      5-min Rain = 0
KPG1 202249Z 24009KT 34/05 A2972 RMK A01 T03400045  RH  016%=      5-min Rain = 0
KPG1 202250Z 23013KT 34/04 A2972 RMK A01 T03410042  RH  015%=      5-min Rain = 0
KPG1 202251Z 26009KT 34/04 A2972 RMK A01 T03410040  RH  015%=      5-min Rain = 0
KPG1 202252Z 24011KT 34/04 A2972 RMK A01 T03430042  RH  015%=      5-min Rain = 0
KPG1 202253Z 24008KT 34/04 A2972 RMK A01 T03420042  RH  015%=      5-min Rain = 0
KPG1 202254Z 25010KT 34/04 A2972 RMK A01 T03420042  RH  015%=      5-min Rain = 0
KPG1 202255Z 26012KT 34/05 A2972 RMK A01 T03420045  RH  016%=      5-min Rain = 0
KPG1 202256Z 26012KT 34/05 A2972 RMK A01 T03400045  RH  016%=      5-min Rain = 0
KPG1 202257Z 26010KT 34/05 A2972 RMK A01 T03380046  RH  016%=      5-min Rain = 0
KPG1 202258Z 26011KT 34/05 A2972 RMK A01 T03370046  RH  016%=      5-min Rain = 0
KPG1 202259Z 27008KT 34/05 A2972 RMK A01 T03370046  RH  016%=      5-min Rain = 0
KPG1 202300Z 27013KT 34/05 A2972 RMK A01 T03360046  RH  016%=      5-min Rain = 0
KPG1 202301Z 26013KT 34/05 A2972 RMK A01 T03360046  RH  016%=      5-min Rain = 0
KPG1 202302Z 25014KT 34/05 A2972 RMK A01 T03360046  RH  016%=      5-min Rain = 0
KPG1 202303Z 26012KT 34/05 A2972 RMK A01 T03350046  RH  016%=      5-min Rain = 0
KPG1 202304Z 26013KT 33/05 A2972 RMK A01 T03340045  RH  016%=      5-min Rain = 0
KPG1 202305Z 26013KT 33/05 A2972 RMK A01 T03330045  RH  016%=      5-min Rain = 0
KPG1 202306Z 25009KT 33/05 A2972 RMK A01 T03330046  RH  017%=      5-min Rain = 0
KPG1 202307Z 25014G19KT 34/05 A2972 RMK A01 T03350047  RH  016%=      5-min Rain = 0
KPG1 202308Z 26010KT 34/05 A2972 RMK A01 T03350046  RH  016%=      5-min Rain = 0
KPG1 202309Z 25011KT 34/05 A2972 RMK A01 T03350046  RH  016%=      5-min Rain = 0
KPG1 202310Z 25011KT 34/05 A2972 RMK A01 T03350046  RH  016%=      5-min Rain = 0
KPG1 202311Z 25012KT 33/05 A2972 RMK A01 T03340046  RH  016%=      5-min Rain = 0
KPG1 202312Z 25011KT 33/05 A2972 RMK A01 T03340046  RH  016%=      5-min Rain = 0
KPG1 202313Z 26009G14KT 33/05 A2972 RMK A01 T03330045  RH  017%=      5-min Rain = 0
KPG1 202314Z 25010KT 33/05 A2972 RMK A01 T03320045  RH  017%=      5-min Rain = 0
KPG1 202315Z 25012KT 33/05 A2972 RMK A01 T03320045  RH  016%=      5-min Rain = 0
KPG1 202316Z 25012KT 33/05 A2972 RMK A01 T03330045  RH  017%=      5-min Rain = 0
KPG1 202317Z 25012KT 33/04 A2972 RMK A01 T03320044  RH  016%=      5-min Rain = 0
KPG1 202318Z 26012KT 33/04 A2972 RMK A01 T03310044  RH  017%=      5-min Rain = 0
KPG1 202319Z 26015KT 33/04 A2972 RMK A01 T03300041  RH  016%=      5-min Rain = 0
KPG1 202320Z 26015KT 33/04 A2972 RMK A01 T03290039  RH  016%=      5-min Rain = 0
KPG1 202321Z 26014KT 33/04 A2972 RMK A01 T03280039  RH  016%=      5-min Rain = 0
KPG1 202322Z 26013KT 33/04 A2972 RMK A01 T03280039  RH  016%=      5-min Rain = 0
KPG1 202323Z 27009KT 33/04 A2972 RMK A01 T03280038  RH  016%=      5-min Rain = 0
KPG1 202324Z 28010KT 33/04 A2972 RMK A01 T03290036  RH  016%=      5-min Rain = 0
KPG1 202325Z 27011KT 33/03 A2972 RMK A01 T03290033  RH  015%=      5-min Rain = 0
KPG1 202326Z 27011KT 33/03 A2972 RMK A01 T03290030  RH  015%=      5-min Rain = 0
KPG1 202327Z 26014G20KT 33/03 A2972 RMK A01 T03290027  RH  015%=      5-min Rain = 0
KPG1 202328Z 25017KT 33/02 A2972 RMK A01 T03290021  RH  014%=      5-min Rain = 0
KPG1 202329Z 25011G16KT 33/02 A2972 RMK A01 T03290019  RH  014%=      5-min Rain = 0
KPG1 202330Z 26013G19KT 33/02 A2972 RMK A01 T03290021  RH  014%=      5-min Rain = 0
KPG1 202331Z 25014KT 33/02 A2972 RMK A01 T03290022  RH  014%=      5-min Rain = 0
KPG1 202332Z 26014KT 33/02 A2972 RMK A01 T03280018  RH  014%=      5-min Rain = 0
KPG1 202333Z 26013KT 33/01 A2972 RMK A01 T03280014  RH  014%=      5-min Rain = 0
KPG1 202334Z 26012KT 33/01 A2972 RMK A01 T03270014  RH  014%=      5-min Rain = 0
KPG1 202335Z 25008KT 33/02 A2972 RMK A01 T03270019  RH  014%=      5-min Rain = 0
KPG1 202336Z 26011KT 33/02 A2972 RMK A01 T03270022  RH  015%=      5-min Rain = 0
KPG1 202337Z 26013KT 33/03 A2972 RMK A01 T03260025  RH  015%=      5-min Rain = 0
KPG1 202338Z 27012KT 33/03 A2972 RMK A01 T03250026  RH  015%=      5-min Rain = 0
KPG1 202339Z 27013KT 33/03 A2972 RMK A01 T03250027  RH  015%=      5-min Rain = 0
KPG1 202340Z 26014KT 32/02 A2972 RMK A01 T03240024  RH  015%=      5-min Rain = 0
KPG1 202341Z 26011KT 32/02 A2972 RMK A01 T03230023  RH  015%=      5-min Rain = 0
KPG1 202342Z 27008KT 32/02 A2973 RMK A01 T03230022  RH  015%=      5-min Rain = 0
KPG1 202343Z 27011KT 32/02 A2973 RMK A01 T03230020  RH  015%=      5-min Rain = 0
KPG1 202344Z 27010KT 32/02 A2973 RMK A01 T03230017  RH  014%=      5-min Rain = 0
KPG1 202345Z 26010KT 32/02 A2973 RMK A01 T03230015  RH  014%=      5-min Rain = 0
KPG1 202346Z 26009KT 32/01 A2973 RMK A01 T03230014  RH  014%=      5-min Rain = 0
KPG1 202347Z 27009KT 32/02 A2973 RMK A01 T03220015  RH  014%=      5-min Rain = 0
KPG1 202348Z 27010KT 32/02 A2973 RMK A01 T03220016  RH  014%=      5-min Rain = 0
KPG1 202349Z 28009KT 32/02 A2973 RMK A01 T03210016  RH  014%=      5-min Rain = 0
KPG1 202350Z 26009G14KT 32/02 A2973 RMK A01 T03210016  RH  014%=      5-min Rain = 0
KPG1 202351Z 26012KT 32/02 A2973 RMK A01 T03210016  RH  014%=      5-min Rain = 0
KPG1 202352Z 26010KT 32/02 A2973 RMK A01 T03200017  RH  015%=      5-min Rain = 0
KPG1 202353Z 26012KT 32/02 A2973 RMK A01 T03190017  RH  015%=      5-min Rain = 0
KPG1 202354Z 27012KT 32/02 A2973 RMK A01 T03190017  RH  015%=      5-min Rain = 0
KPG1 202355Z 28010KT 32/02 A2973 RMK A01 T03180017  RH  015%=      5-min Rain = 0
KPG1 202356Z 27011KT 32/02 A2973 RMK A01 T03180017  RH  015%=      5-min Rain = 0
KPG1 202357Z 27011KT 32/02 A2973 RMK A01 T03170018  RH  015%=      5-min Rain = 0
KPG1 202358Z 27010KT 32/02 A2973 RMK A01 T03170015  RH  015%=      5-min Rain = 0
KPG1 202359Z 28009KT 32/01 A2973 RMK A01 T03160013  RH  014%=      5-min Rain = 0
KPG1 210000Z 28008KT 32/01 A2973 RMK A01 T03160012  RH  014%=      5-min Rain = 0
KPG1 210001Z 27009KT 32/01 A2973 RMK A01 T03150011  RH  014%=      5-min Rain = 0
KPG1 210002Z 28011KT 32/01 A2973 RMK A01 T03150011  RH  014%=      5-min Rain = 0
KPG1 210003Z 29010KT 31/01 A2973 RMK A01 T03140011  RH  014%=      5-min Rain = 0
KPG1 210004Z 28008KT 31/01 A2973 RMK A01 T03130012  RH  015%=      5-min Rain = 0
KPG1 210005Z 28009KT 31/01 A2973 RMK A01 T03130012  RH  015%=      5-min Rain = 0
KPG1 210006Z 29011G16KT 31/01 A2973 RMK A01 T03130012  RH  015%=      5-min Rain = 0
KPG1 210007Z 28008KT 31/01 A2973 RMK A01 T03120012  RH  015%=      5-min Rain = 0
KPG1 210008Z 28007KT 31/01 A2974 RMK A01 T03110013  RH  015%=      5-min Rain = 0
KPG1 210009Z 29009KT 31/01 A2973 RMK A01 T03100013  RH  015%=      5-min Rain = 0
KPG1 210010Z 28007KT 31/01 A2973 RMK A01 T03100013  RH  015%=      5-min Rain = 0
KPG1 210011Z 29008KT 31/01 A2974 RMK A01 T03090013  RH  015%=      5-min Rain = 0
KPG1 210012Z 28009G14KT 31/02 A2974 RMK A01 T03090015  RH  015%=      5-min Rain = 0
KPG1 210013Z 28010KT 31/02 A2974 RMK A01 T03080015  RH  015%=      5-min Rain = 0
KPG1 210014Z 29010KT 31/02 A2974 RMK A01 T03070016  RH  016%=      5-min Rain = 0
KPG1 210015Z 28007KT 31/02 A2974 RMK A01 T03060016  RH  016%=      5-min Rain = 0
KPG1 210016Z 30007KT 31/02 A2974 RMK A01 T03050017  RH  016%=      5-min Rain = 0
KPG1 210017Z 30008KT 31/02 A2974 RMK A01 T03050016  RH  016%=      5-min Rain = 0
KPG1 210018Z 29008KT 31/02 A2974 RMK A01 T03050017  RH  016%=      5-min Rain = 0
KPG1 210019Z 29004KT 30/02 A2974 RMK A01 T03040017  RH  016%=      5-min Rain = 0
KPG1 210020Z 28008KT 30/02 A2974 RMK A01 T03030016  RH  016%=      5-min Rain = 0
KPG1 210021Z 29006KT 30/02 A2974 RMK A01 T03020016  RH  016%=      5-min Rain = 0
KPG1 210022Z 29006KT 30/02 A2974 RMK A01 T03020015  RH  016%=      5-min Rain = 0
KPG1 210023Z 29007KT 30/01 A2974 RMK A01 T03020014  RH  016%=      5-min Rain = 0
KPG1 210024Z 29007KT 30/01 A2974 RMK A01 T03020013  RH  016%=      5-min Rain = 0
KPG1 210025Z 28008KT 30/01 A2974 RMK A01 T03020013  RH  016%=      5-min Rain = 0
KPG1 210026Z 29007KT 30/01 A2974 RMK A01 T03020012  RH  016%=      5-min Rain = 0
KPG1 210027Z 28007KT 30/01 A2974 RMK A01 T03010012  RH  016%=      5-min Rain = 0
KPG1 210028Z 28007KT 30/01 A2974 RMK A01 T03020012  RH  016%=      5-min Rain = 0
KPG1 210029Z 28008KT 30/01 A2974 RMK A01 T03010012  RH  016%=      5-min Rain = 0
KPG1 210030Z 30007KT 30/01 A2974 RMK A01 T03000012  RH  016%=      5-min Rain = 0
KPG1 210031Z 29007KT 30/01 A2974 RMK A01 T03010011  RH  016%=      5-min Rain = 0
KPG1 210032Z 31007KT 30/01 A2974 RMK A01 T03010011  RH  016%=      5-min Rain = 0
KPG1 210033Z 30006KT 30/01 A2974 RMK A01 T03010011  RH  015%=      5-min Rain = 0
KPG1 210034Z 30004KT 30/01 A2974 RMK A01 T03010011  RH  016%=      5-min Rain = 0
KPG1 210035Z 31005KT 30/01 A2974 RMK A01 T03000011  RH  016%=      5-min Rain = 0
KPG1 210036Z 30006KT 30/01 A2975 RMK A01 T02990011  RH  016%=      5-min Rain = 0
KPG1 210037Z 30007KT 30/01 A2975 RMK A01 T02990011  RH  016%=      5-min Rain = 0
KPG1 210038Z 30007KT 30/01 A2975 RMK A01 T02990011  RH  016%=      5-min Rain = 0
KPG1 210039Z 29006KT 30/01 A2975 RMK A01 T02990010  RH  016%=      5-min Rain = 0
KPG1 210040Z 31005KT 30/01 A2975 RMK A01 T02990011  RH  016%=      5-min Rain = 0
KPG1 210041Z 28008KT 30/01 A2975 RMK A01 T02980011  RH  016%=      5-min Rain = 0
KPG1 210042Z 31006KT 30/01 A2975 RMK A01 T02970011  RH  016%=      5-min Rain = 0
KPG1 210043Z 31006KT 30/01 A2975 RMK A01 T02970010  RH  016%=      5-min Rain = 0
KPG1 210044Z 30006KT 30/01 A2975 RMK A01 T02980010  RH  016%=      5-min Rain = 0
KPG1 210045Z 30004KT 30/01 A2975 RMK A01 T02980010  RH  016%=      5-min Rain = 0
KPG1 210046Z 30003KT 30/01 A2975 RMK A01 T02970010  RH  016%=      5-min Rain = 0
KPG1 210047Z 31004KT 30/01 A2975 RMK A01 T02960010  RH  016%=      5-min Rain = 0
KPG1 210048Z 31006KT 30/01 A2975 RMK A01 T02960011  RH  016%=      5-min Rain = 0
KPG1 210049Z 31007KT 30/01 A2975 RMK A01 T02950010  RH  016%=      5-min Rain = 0
KPG1 210050Z 30008KT 30/01 A2975 RMK A01 T02950011  RH  016%=      5-min Rain = 0
KPG1 210051Z 31005KT 30/01 A2975 RMK A01 T02960011  RH  016%=      5-min Rain = 0
KPG1 210052Z 30005KT 30/01 A2975 RMK A01 T02950011  RH  016%=      5-min Rain = 0
KPG1 210053Z 31004KT 30/01 A2975 RMK A01 T02950011  RH  016%=      5-min Rain = 0
KPG1 210054Z 30005KT 30/01 A2975 RMK A01 T02950012  RH  016%=      5-min Rain = 0
KPG1 210055Z 31005KT 29/01 A2975 RMK A01 T02940012  RH  016%=      5-min Rain = 0
KPG1 210056Z 31007KT 29/01 A2975 RMK A01 T02930012  RH  016%=      5-min Rain = 0
KPG1 210057Z 31011KT 29/01 A2975 RMK A01 T02930012  RH  016%=      5-min Rain = 0
KPG1 210058Z 31009KT 29/01 A2975 RMK A01 T02940014  RH  016%=      5-min Rain = 0
KPG1 210059Z 31008KT 30/01 A2975 RMK A01 T02950014  RH  016%=      5-min Rain = 0
KPG1 210100Z 31009KT 30/01 A2975 RMK A01 T02950014  RH  016%=      5-min Rain = 0
KPG1 210101Z 30007KT 30/02 A2975 RMK A01 T02950015  RH  017%=      5-min Rain = 0
KPG1 210102Z 31009KT 30/02 A2975 RMK A01 T02950015  RH  017%=      5-min Rain = 0
KPG1 210103Z 31010KT 29/02 A2975 RMK A01 T02940016  RH  017%=      5-min Rain = 0
KPG1 210104Z 31009KT 29/02 A2975 RMK A01 T02940016  RH  017%=      5-min Rain = 0
KPG1 210105Z 31010KT 29/02 A2975 RMK A01 T02940017  RH  017%=      5-min Rain = 0
KPG1 210106Z 31008KT 30/02 A2976 RMK A01 T02950017  RH  017%=      5-min Rain = 0
KPG1 210107Z 30010KT 29/02 A2976 RMK A01 T02940018  RH  017%=      5-min Rain = 0
KPG1 210108Z 31010KT 29/02 A2976 RMK A01 T02940018  RH  017%=      5-min Rain = 0
KPG1 210109Z 31008KT 29/02 A2976 RMK A01 T02940018  RH  017%=      5-min Rain = 0
KPG1 210110Z 31010KT 29/02 A2976 RMK A01 T02940018  RH  017%=      5-min Rain = 0
KPG1 210111Z 31010KT 29/02 A2976 RMK A01 T02930018  RH  017%=      5-min Rain = 0
KPG1 210112Z 31009KT 29/02 A2976 RMK A01 T02930019  RH  017%=      5-min Rain = 0
KPG1 210113Z 31008KT 29/02 A2976 RMK A01 T02940019  RH  017%=      5-min Rain = 0
KPG1 210114Z 31008KT 29/02 A2976 RMK A01 T02940019  RH  017%=      5-min Rain = 0
KPG1 210115Z 31008KT 29/02 A2976 RMK A01 T02940019  RH  017%=      5-min Rain = 0
KPG1 210116Z 31008KT 29/02 A2976 RMK A01 T02940020  RH  017%=      5-min Rain = 0
KPG1 210117Z 31008KT 29/02 A2976 RMK A01 T02930020  RH  017%=      5-min Rain = 0
KPG1 210118Z 30009KT 29/02 A2976 RMK A01 T02930020  RH  017%=      5-min Rain = 0
KPG1 210119Z 31009KT 29/02 A2976 RMK A01 T02930020  RH  017%=      5-min Rain = 0
KPG1 210120Z 31009KT 29/02 A2976 RMK A01 T02930020  RH  017%=      5-min Rain = 0
KPG1 210121Z 31009KT 29/02 A2976 RMK A01 T02930020  RH  017%=      5-min Rain = 0
KPG1 210122Z 32008KT 29/02 A2976 RMK A01 T02930020  RH  017%=      5-min Rain = 0
KPG1 210123Z 32009KT 29/02 A2976 RMK A01 T02920020  RH  017%=      5-min Rain = 0
KPG1 210124Z 31010KT 29/02 A2976 RMK A01 T02920021  RH  018%=      5-min Rain = 0
KPG1 210125Z 31011KT 29/02 A2976 RMK A01 T02920022  RH  018%=      5-min Rain = 0
KPG1 210126Z 31011KT 29/02 A2976 RMK A01 T02930022  RH  018%=      5-min Rain = 0
KPG1 210127Z 31010KT 29/02 A2976 RMK A01 T02930021  RH  018%=      5-min Rain = 0
KPG1 210128Z 31009KT 29/02 A2976 RMK A01 T02930022  RH  018%=      5-min Rain = 0
KPG1 210129Z 32008KT 29/02 A2976 RMK A01 T02930023  RH  018%=      5-min Rain = 0
KPG1 210130Z 31008KT 29/02 A2976 RMK A01 T02920023  RH  018%=      5-min Rain = 0
KPG1 210131Z 32008KT 29/02 A2976 RMK A01 T02910023  RH  018%=      5-min Rain = 0
KPG1 210132Z 32008KT 29/02 A2976 RMK A01 T02900024  RH  018%=      5-min Rain = 0
KPG1 210133Z 32009KT 29/02 A2976 RMK A01 T02900024  RH  018%=      5-min Rain = 0
KPG1 210134Z 32009KT 29/03 A2976 RMK A01 T02900025  RH  018%=      5-min Rain = 0
KPG1 210135Z 32008KT 29/03 A2977 RMK A01 T02900025  RH  018%=      5-min Rain = 0
KPG1 210136Z 32008KT 29/03 A2977 RMK A01 T02900025  RH  018%=      5-min Rain = 0
KPG1 210137Z 32009KT 29/03 A2977 RMK A01 T02900025  RH  018%=      5-min Rain = 0
KPG1 210138Z 32009KT 29/03 A2977 RMK A01 T02890025  RH  018%=      5-min Rain = 0
KPG1 210139Z 32010KT 29/03 A2977 RMK A01 T02900026  RH  018%=      5-min Rain = 0
KPG1 210140Z 31010KT 29/03 A2977 RMK A01 T02910026  RH  018%=      5-min Rain = 0
KPG1 210141Z 31009KT 29/03 A2977 RMK A01 T02910026  RH  018%=      5-min Rain = 0
KPG1 210142Z 32007KT 29/03 A2977 RMK A01 T02910026  RH  018%=      5-min Rain = 0
KPG1 210143Z 32007KT 29/03 A2977 RMK A01 T02910027  RH  018%=      5-min Rain = 0
KPG1 210144Z 30008KT 29/03 A2977 RMK A01 T02910027  RH  018%=      5-min Rain = 0
KPG1 210145Z 32008KT 29/03 A2977 RMK A01 T02900027  RH  019%=      5-min Rain = 0
KPG1 210146Z 32008KT 29/03 A2977 RMK A01 T02910027  RH  018%=      5-min Rain = 0
KPG1 210147Z 32008KT 29/03 A2977 RMK A01 T02920028  RH  019%=      5-min Rain = 0
KPG1 210148Z 33009KT 29/03 A2977 RMK A01 T02920029  RH  019%=      5-min Rain = 0
KPG1 210149Z 32008KT 29/03 A2977 RMK A01 T02910029  RH  019%=      5-min Rain = 0
KPG1 210150Z 33008KT 29/03 A2977 RMK A01 T02910029  RH  019%=      5-min Rain = 0
KPG1 210151Z 31009KT 29/03 A2977 RMK A01 T02910030  RH  019%=      5-min Rain = 0
KPG1 210152Z 31007KT 29/03 A2977 RMK A01 T02910031  RH  019%=      5-min Rain = 0
KPG1 210153Z 32007KT 29/03 A2977 RMK A01 T02900030  RH  019%=      5-min Rain = 0
KPG1 210154Z 32009KT 29/03 A2977 RMK A01 T02910031  RH  019%=      5-min Rain = 0
KPG1 210155Z 32010KT 29/03 A2977 RMK A01 T02900032  RH  019%=      5-min Rain = 0
KPG1 210156Z 31010KT 29/03 A2977 RMK A01 T02900033  RH  019%=      5-min Rain = 0
KPG1 210157Z 31010KT 29/04 A2977 RMK A01 T02910035  RH  019%=      5-min Rain = 0
KPG1 210158Z 31010KT 29/04 A2977 RMK A01 T02910035  RH  019%=      5-min Rain = 0
KPG1 210159Z 31010KT 29/04 A2977 RMK A01 T02920035  RH  019%=      5-min Rain = 0
KPG1 210200Z 31009KT 29/04 A2977 RMK A01 T02920035  RH  019%=      5-min Rain = 0
KPG1 210201Z 32007KT 29/04 A2978 RMK A01 T02920035  RH  019%=      5-min Rain = 0
KPG1 210202Z 31007KT 29/04 A2978 RMK A01 T02920035  RH  019%=      5-min Rain = 0
KPG1 210203Z 31009KT 29/04 A2978 RMK A01 T02910035  RH  020%=      5-min Rain = 0
KPG1 210204Z 32008KT 29/04 A2978 RMK A01 T02910036  RH  020%=      5-min Rain = 0
KPG1 210205Z 32006KT 29/04 A2978 RMK A01 T02910036  RH  020%=      5-min Rain = 0
KPG1 210206Z 32008KT 29/04 A2978 RMK A01 T02910036  RH  020%=      5-min Rain = 0
KPG1 210207Z 31008KT 29/04 A2978 RMK A01 T02910037  RH  020%=      5-min Rain = 0
KPG1 210208Z 31007KT 29/04 A2978 RMK A01 T02900037  RH  020%=      5-min Rain = 0
KPG1 210209Z 31008KT 29/04 A2978 RMK A01 T02910037  RH  020%=      5-min Rain = 0
KPG1 210210Z 31007KT 29/04 A2978 RMK A01 T02910037  RH  020%=      5-min Rain = 0
KPG1 210211Z 31006KT 29/04 A2978 RMK A01 T02910037  RH  020%=      5-min Rain = 0
KPG1 210212Z 32008KT 29/04 A2978 RMK A01 T02900037  RH  020%=      5-min Rain = 0
KPG1 210213Z 33007KT 29/04 A2978 RMK A01 T02900037  RH  020%=      5-min Rain = 0
KPG1 210214Z 32007KT 29/04 A2978 RMK A01 T02900037  RH  020%=      5-min Rain = 0
KPG1 210215Z 32007KT 29/04 A2978 RMK A01 T02890037  RH  020%=      5-min Rain = 0
KPG1 210216Z 32008KT 29/04 A2978 RMK A01 T02890037  RH  020%=      5-min Rain = 0
KPG1 210217Z 32006KT 29/04 A2978 RMK A01 T02900037  RH  020%=      5-min Rain = 0
KPG1 210218Z 32006KT 29/04 A2979 RMK A01 T02890037  RH  020%=      5-min Rain = 0
KPG1 210219Z 32006KT 29/04 A2979 RMK A01 T02890038  RH  020%=      5-min Rain = 0
KPG1 210220Z 32006KT 29/04 A2979 RMK A01 T02880038  RH  020%=      5-min Rain = 0
KPG1 210221Z 32006KT 29/04 A2979 RMK A01 T02880038  RH  020%=      5-min Rain = 0
KPG1 210222Z 32006KT 29/04 A2979 RMK A01 T02880038  RH  020%=      5-min Rain = 0
KPG1 210223Z 32006KT 29/04 A2979 RMK A01 T02880038  RH  020%=      5-min Rain = 0
KPG1 210224Z 32006KT 29/04 A2979 RMK A01 T02880038  RH  020%=      5-min Rain = 0
KPG1 210225Z 33006KT 29/04 A2979 RMK A01 T02870038  RH  020%=      5-min Rain = 0
KPG1 210226Z 33006KT 29/04 A2979 RMK A01 T02870039  RH  020%=      5-min Rain = 0
KPG1 210227Z 33006KT 29/04 A2979 RMK A01 T02860039  RH  021%=      5-min Rain = 0
KPG1 210228Z 33006KT 29/04 A2979 RMK A01 T02850039  RH  021%=      5-min Rain = 0
KPG1 210229Z 33006KT 29/04 A2979 RMK A01 T02860039  RH  021%=      5-min Rain = 0
KPG1 210230Z 32006KT 29/04 A2979 RMK A01 T02860039  RH  021%=      5-min Rain = 0
KPG1 210231Z 32007KT 29/04 A2979 RMK A01 T02860039  RH  021%=      5-min Rain = 0
KPG1 210232Z 32007KT 29/04 A2979 RMK A01 T02860040  RH  021%=      5-min Rain = 0
KPG1 210233Z 32007KT 29/04 A2979 RMK A01 T02860040  RH  021%=      5-min Rain = 0
KPG1 210234Z 32007KT 29/04 A2979 RMK A01 T02860040  RH  021%=      5-min Rain = 0
KPG1 210235Z 32007KT 29/04 A2979 RMK A01 T02860041  RH  021%=      5-min Rain = 0
KPG1 210236Z 32007KT 29/04 A2979 RMK A01 T02870041  RH  021%=      5-min Rain = 0
KPG1 210237Z 32007KT 29/04 A2979 RMK A01 T02880041  RH  021%=      5-min Rain = 0
KPG1 210238Z 32006KT 29/04 A2979 RMK A01 T02890041  RH  021%=      5-min Rain = 0
KPG1 210239Z 32008KT 29/04 A2979 RMK A01 T02890041  RH  021%=      5-min Rain = 0
KPG1 210240Z 32008KT 29/04 A2979 RMK A01 T02880041  RH  021%=      5-min Rain = 0
KPG1 210241Z 32008KT 29/04 A2979 RMK A01 T02880041  RH  021%=      5-min Rain = 0
KPG1 210242Z 32008KT 29/04 A2979 RMK A01 T02880041  RH  021%=      5-min Rain = 0
KPG1 210243Z 32008KT 29/04 A2979 RMK A01 T02880042  RH  021%=      5-min Rain = 0
KPG1 210244Z 33006KT 29/04 A2979 RMK A01 T02880042  RH  021%=      5-min Rain = 0
KPG1 210245Z 34006KT 29/04 A298 RMK A01 T02880042  RH  021%=      5-min Rain = 0
KPG1 210246Z 34005KT 29/04 A298 RMK A01 T02880043  RH  021%=      5-min Rain = 0
KPG1 210247Z 34004KT 29/04 A298 RMK A01 T02880042  RH  021%=      5-min Rain = 0
KPG1 210248Z 33005KT 29/04 A298 RMK A01 T02860042  RH  021%=      5-min Rain = 0
KPG1 210249Z 33006KT 28/04 A298 RMK A01 T02840042  RH  021%=      5-min Rain = 0
KPG1 210250Z 33008KT 28/04 A298 RMK A01 T02830042  RH  021%=      5-min Rain = 0
KPG1 210251Z 33007KT 28/04 A298 RMK A01 T02840043  RH  022%=      5-min Rain = 0
KPG1 210252Z 33008KT 29/04 A298 RMK A01 T02850044  RH  021%=      5-min Rain = 0
KPG1 210253Z 33007KT 29/04 A298 RMK A01 T02870044  RH  021%=      5-min Rain = 0
KPG1 210254Z 33008KT 29/04 A298 RMK A01 T02870043  RH  021%=      5-min Rain = 0
KPG1 210255Z 34008KT 29/04 A298 RMK A01 T02870042  RH  021%=      5-min Rain = 0
KPG1 210256Z 35007KT 29/04 A298 RMK A01 T02870042  RH  021%=      5-min Rain = 0
KPG1 210257Z 34010KT 29/04 A298 RMK A01 T02860040  RH  021%=      5-min Rain = 0
KPG1 210258Z 34009KT 29/04 A298 RMK A01 T02850038  RH  021%=      5-min Rain = 0
KPG1 210259Z 33010KT 28/04 A298 RMK A01 T02830036  RH  020%=      5-min Rain = 0
KPG1 210300Z 34011KT 28/03 A298 RMK A01 T02830034  RH  020%=      5-min Rain = 0
KPG1 210301Z 34012KT 29/03 A298 RMK A01 T02850032  RH  020%=      5-min Rain = 0
KPG1 210302Z 34012KT 29/03 A298 RMK A01 T02870032  RH  020%=      5-min Rain = 0
KPG1 210303Z 34012KT 29/03 A298 RMK A01 T02870031  RH  019%=      5-min Rain = 0
KPG1 210304Z 34011KT 29/03 A298 RMK A01 T02870030  RH  019%=      5-min Rain = 0
KPG1 210305Z 34013KT 29/03 A298 RMK A01 T02870030  RH  019%=      5-min Rain = 0
KPG1 210306Z 33011KT 29/03 A298 RMK A01 T02870030  RH  019%=      5-min Rain = 0
KPG1 210307Z 33012KT 29/03 A298 RMK A01 T02870029  RH  019%=      5-min Rain = 0
KPG1 210308Z 33012KT 29/03 A298 RMK A01 T02870029  RH  019%=      5-min Rain = 0
KPG1 210309Z 33011KT 29/03 A298 RMK A01 T02870029  RH  019%=      5-min Rain = 0
KPG1 210310Z 32011G16KT 29/03 A298 RMK A01 T02870029  RH  019%=      5-min Rain = 0
KPG1 210311Z 32010G15KT 29/03 A298 RMK A01 T02870028  RH  019%=      5-min Rain = 0
KPG1 210312Z 32012KT 29/03 A298 RMK A01 T02870028  RH  019%=      5-min Rain = 0
KPG1 210313Z 34011KT 29/03 A298 RMK A01 T02870027  RH  019%=      5-min Rain = 0
KPG1 210314Z 33009KT 29/03 A298 RMK A01 T02870027  RH  019%=      5-min Rain = 0
KPG1 210315Z 34007KT 29/03 A298 RMK A01 T02860027  RH  019%=      5-min Rain = 0
KPG1 210316Z 33009KT 29/03 A298 RMK A01 T02850027  RH  019%=      5-min Rain = 0
KPG1 210317Z 34008KT 28/03 A298 RMK A01 T02830026  RH  019%=      5-min Rain = 0
KPG1 210318Z 34007KT 28/03 A298 RMK A01 T02830026  RH  019%=      5-min Rain = 0
KPG1 210319Z 34008KT 28/03 A298 RMK A01 T02810026  RH  019%=      5-min Rain = 0
KPG1 210320Z 35009KT 28/03 A298 RMK A01 T02790026  RH  020%=      5-min Rain = 0
KPG1 210321Z 34007KT 28/03 A298 RMK A01 T02780026  RH  020%=      5-min Rain = 0
KPG1 210322Z 33009KT 28/03 A298 RMK A01 T02770027  RH  020%=      5-min Rain = 0
KPG1 210323Z 34008KT 28/03 A298 RMK A01 T02770026  RH  020%=      5-min Rain = 0
KPG1 210324Z 34008KT 28/03 A298 RMK A01 T02770025  RH  020%=      5-min Rain = 0
KPG1 210325Z 34011KT 28/03 A298 RMK A01 T02790025  RH  019%=      5-min Rain = 0
KPG1 210326Z 35008KT 28/02 A298 RMK A01 T02800024  RH  019%=      5-min Rain = 0
KPG1 210327Z 34010KT 28/02 A298 RMK A01 T02800024  RH  019%=      5-min Rain = 0
KPG1 210328Z 34011KT 28/02 A298 RMK A01 T02790024  RH  019%=      5-min Rain = 0
KPG1 210329Z 35009KT 28/02 A298 RMK A01 T02790024  RH  019%=      5-min Rain = 0
KPG1 210330Z 34008KT 28/02 A298 RMK A01 T02790024  RH  019%=      5-min Rain = 0
KPG1 210331Z 34012KT 28/02 A298 RMK A01 T02780023  RH  019%=      5-min Rain = 0
KPG1 210332Z 36010KT 28/02 A298 RMK A01 T02780023  RH  019%=      5-min Rain = 0
KPG1 210333Z 35009KT 28/02 A2981 RMK A01 T02780023  RH  019%=      5-min Rain = 0
KPG1 210334Z 35010KT 28/02 A2981 RMK A01 T02770023  RH  019%=      5-min Rain = 0
KPG1 210335Z 35011KT 28/02 A2981 RMK A01 T02760023  RH  019%=      5-min Rain = 0
KPG1 210336Z 35014KT 28/02 A2981 RMK A01 T02770023  RH  019%=      5-min Rain = 0
KPG1 210337Z 34010KT 28/02 A2981 RMK A01 T02780023  RH  019%=      5-min Rain = 0
KPG1 210338Z 34012KT 28/02 A2981 RMK A01 T02780022  RH  019%=      5-min Rain = 0
KPG1 210339Z 34014KT 28/02 A2981 RMK A01 T02770021  RH  019%=      5-min Rain = 0
KPG1 210340Z 34011KT 28/02 A2981 RMK A01 T02780020  RH  019%=      5-min Rain = 0
KPG1 210341Z 34010KT 28/02 A2981 RMK A01 T02790020  RH  019%=      5-min Rain = 0
KPG1 210342Z 34010KT 28/02 A2981 RMK A01 T02780021  RH  019%=      5-min Rain = 0
KPG1 210343Z 34013KT 28/02 A2981 RMK A01 T02760020  RH  019%=      5-min Rain = 0
KPG1 210344Z 34010KT 28/02 A2981 RMK A01 T02760020  RH  019%=      5-min Rain = 0
KPG1 210345Z 35010KT 28/02 A2981 RMK A01 T02760020  RH  019%=      5-min Rain = 0
KPG1 210346Z 35010KT 28/02 A2981 RMK A01 T02750020  RH  019%=      5-min Rain = 0
KPG1 210347Z 35012G17KT 27/02 A2981 RMK A01 T02740020  RH  019%=      5-min Rain = 0
KPG1 210348Z 35013KT 27/02 A2981 RMK A01 T02740020  RH  019%=      5-min Rain = 0
KPG1 210349Z 35012KT 27/02 A2981 RMK A01 T02740020  RH  019%=      5-min Rain = 0
KPG1 210350Z 35010KT 27/02 A2981 RMK A01 T02740020  RH  019%=      5-min Rain = 0
KPG1 210351Z 35013KT 27/02 A2982 RMK A01 T02740020  RH  019%=      5-min Rain = 0
KPG1 210352Z 35014KT 27/02 A2982 RMK A01 T02740020  RH  019%=      5-min Rain = 0
KPG1 210353Z 34009KT 27/02 A2982 RMK A01 T02740020  RH  019%=      5-min Rain = 0
KPG1 210354Z 35011KT 27/02 A2982 RMK A01 T02740020  RH  019%=      5-min Rain = 0
KPG1 210355Z 35011KT 27/02 A2982 RMK A01 T02740020  RH  019%=      5-min Rain = 0
KPG1 210356Z 34011KT 27/02 A2982 RMK A01 T02730020  RH  019%=      5-min Rain = 0
KPG1 210357Z 35009KT 27/02 A2982 RMK A01 T02730020  RH  019%=      5-min Rain = 0
KPG1 210358Z 35010KT 27/02 A2982 RMK A01 T02730020  RH  019%=      5-min Rain = 0
KPG1 210359Z 35012KT 27/02 A2982 RMK A01 T02720020  RH  020%=      5-min Rain = 0
KPG1 210400Z 36012KT 27/02 A2982 RMK A01 T02720020  RH  020%=      5-min Rain = 0
KPG1 210401Z 36013KT 27/02 A2982 RMK A01 T02720020  RH  020%=      5-min Rain = 0
KPG1 210402Z 35010KT 27/02 A2982 RMK A01 T02720020  RH  020%=      5-min Rain = 0
KPG1 210403Z 35013KT 27/02 A2982 RMK A01 T02710021  RH  020%=      5-min Rain = 0
KPG1 210404Z 35014KT 27/02 A2982 RMK A01 T02700020  RH  020%=      5-min Rain = 0
KPG1 210405Z 35014KT 27/02 A2982 RMK A01 T02710020  RH  020%=      5-min Rain = 0
KPG1 210406Z 35013KT 27/02 A2982 RMK A01 T02720021  RH  020%=      5-min Rain = 0
KPG1 210407Z 35013KT 27/02 A2982 RMK A01 T02720020  RH  020%=      5-min Rain = 0
KPG1 210408Z 34011KT 27/02 A2982 RMK A01 T02720021  RH  020%=      5-min Rain = 0
KPG1 210409Z 35011KT 27/02 A2982 RMK A01 T02720020  RH  020%=      5-min Rain = 0
KPG1 210410Z 35013KT 27/02 A2982 RMK A01 T02710020  RH  020%=      5-min Rain = 0
KPG1 210411Z 35012KT 27/02 A2982 RMK A01 T02710020  RH  020%=      5-min Rain = 0
KPG1 210412Z 36013KT 27/02 A2982 RMK A01 T02710020  RH  020%=      5-min Rain = 0
KPG1 210413Z 36011KT 27/02 A2982 RMK A01 T02700020  RH  020%=      5-min Rain = 0
KPG1 210414Z 35014KT 27/02 A2982 RMK A01 T02700020  RH  020%=      5-min Rain = 0
KPG1 210415Z 36014KT 27/02 A2982 RMK A01 T02700020  RH  020%=      5-min Rain = 0
KPG1 210416Z 35013KT 27/02 A2983 RMK A01 T02700020  RH  020%=      5-min Rain = 0
KPG1 210417Z 35014KT 27/02 A2983 RMK A01 T02710020  RH  020%=      5-min Rain = 0
KPG1 210418Z 34012KT 27/02 A2983 RMK A01 T02710020  RH  020%=      5-min Rain = 0
KPG1 210419Z 34011KT 27/02 A2983 RMK A01 T02700020  RH  020%=      5-min Rain = 0
KPG1 210420Z 35010KT 27/02 A2983 RMK A01 T02700020  RH  020%=      5-min Rain = 0
KPG1 210421Z 35011KT 27/02 A2983 RMK A01 T02680020  RH  020%=      5-min Rain = 0
KPG1 210422Z 33012KT 27/02 A2983 RMK A01 T02680020  RH  020%=      5-min Rain = 0
KPG1 210423Z 34013KT 27/02 A2982 RMK A01 T02690020  RH  020%=      5-min Rain = 0
KPG1 210424Z 34013KT 27/02 A2982 RMK A01 T02700021  RH  020%=      5-min Rain = 0
KPG1 210425Z 34013G18KT 27/02 A2982 RMK A01 T02710020  RH  020%=      5-min Rain = 0
KPG1 210426Z 35015G20KT 27/02 A2982 RMK A01 T02710021  RH  020%=      5-min Rain = 0
KPG1 210427Z 34013KT 27/02 A2982 RMK A01 T02710020  RH  020%=      5-min Rain = 0
KPG1 210428Z 33019KT 27/02 A2982 RMK A01 T02720021  RH  020%=      5-min Rain = 0
KPG1 210429Z 34016KT 27/02 A2982 RMK A01 T02740022  RH  020%=      5-min Rain = 0
KPG1 210430Z 33014G19KT 28/02 A2982 RMK A01 T02750022  RH  019%=      5-min Rain = 0
KPG1 210431Z 34013G18KT 27/02 A2983 RMK A01 T02740021  RH  019%=      5-min Rain = 0
KPG1 210432Z 34015KT 27/02 A2983 RMK A01 T02730021  RH  020%=      5-min Rain = 0
KPG1 210433Z 34017KT 27/02 A2983 RMK A01 T02730022  RH  020%=      5-min Rain = 0
KPG1 210434Z 34014G19KT 27/02 A2983 RMK A01 T02740022  RH  020%=      5-min Rain = 0
KPG1 210435Z 34012G17KT 27/02 A2983 RMK A01 T02740022  RH  020%=      5-min Rain = 0
KPG1 210436Z 34015KT 27/02 A2983 RMK A01 T02730022  RH  020%=      5-min Rain = 0
KPG1 210437Z 33017KT 27/02 A2983 RMK A01 T02730022  RH  020%=      5-min Rain = 0
KPG1 210438Z 34016KT 27/02 A2983 RMK A01 T02740022  RH  020%=      5-min Rain = 0
KPG1 210439Z 34015KT 28/02 A2983 RMK A01 T02750022  RH  020%=      5-min Rain = 0
KPG1 210440Z 34017KT 28/02 A2983 RMK A01 T02750023  RH  020%=      5-min Rain = 0
KPG1 210441Z 34017KT 28/02 A2983 RMK A01 T02760023  RH  020%=      5-min Rain = 0
KPG1 210442Z 34015G21KT 28/02 A2983 RMK A01 T02770023  RH  019%=      5-min Rain = 0
KPG1 210443Z 34019KT 28/02 A2983 RMK A01 T02770023  RH  019%=      5-min Rain = 0
KPG1 210444Z 34015G20KT 28/02 A2983 RMK A01 T02770023  RH  019%=      5-min Rain = 0
KPG1 210445Z 34017KT 28/02 A2983 RMK A01 T02760023  RH  019%=      5-min Rain = 0
KPG1 210446Z 34015KT 28/02 A2983 RMK A01 T02770023  RH  019%=      5-min Rain = 0
KPG1 210447Z 34013KT 28/02 A2983 RMK A01 T02770023  RH  019%=      5-min Rain = 0
KPG1 210448Z 34016KT 28/02 A2983 RMK A01 T02760024  RH  020%=      5-min Rain = 0
KPG1 210449Z 34016KT 28/02 A2983 RMK A01 T02750023  RH  020%=      5-min Rain = 0
KPG1 210450Z 34017KT 28/02 A2983 RMK A01 T02760024  RH  020%=      5-min Rain = 0
KPG1 210451Z 34015KT 28/02 A2983 RMK A01 T02760024  RH  020%=      5-min Rain = 0
KPG1 210452Z 34018KT 28/03 A2983 RMK A01 T02760025  RH  020%=      5-min Rain = 0
KPG1 210453Z 34013G18KT 28/03 A2983 RMK A01 T02770025  RH  020%=      5-min Rain = 0
KPG1 210454Z 34011G16KT 28/03 A2984 RMK A01 T02770025  RH  020%=      5-min Rain = 0
KPG1 210455Z 34017KT 28/03 A2983 RMK A01 T02750025  RH  020%=      5-min Rain = 0
KPG1 210456Z 34014KT 28/03 A2983 RMK A01 T02760026  RH  020%=      5-min Rain = 0
KPG1 210457Z 34012KT 28/03 A2984 RMK A01 T02760025  RH  020%=      5-min Rain = 0
KPG1 210458Z 33014KT 28/03 A2984 RMK A01 T02760025  RH  020%=      5-min Rain = 0
KPG1 210459Z 34013KT 28/03 A2984 RMK A01 T02760026  RH  020%=      5-min Rain = 0

Page generated in 0.0782 seconds.